Wetterdaten: Montag, 01.08.2022
Datum Zeit Temp. Aussen Temp. o. S. Temp +5cm Feuchte Auss Luftdruck Regen Sonnenschein Regendauer Solar Windben Empfang
01.08.2022 00:00 19,9 C 18,9 C 15,0 C 96 % 1016,2 hPa 0,0 l/m 0 min 0 min 0 W/m 6,4 km/h (2 Bft) 97,87 %
01.08.2022 00:02 19,9 C 18,9 C 15,0 C 96 % 1016,3 hPa 0,0 l/m 0 min 0 min 0 W/m 6,4 km/h (2 Bft) 95,12 %
01.08.2022 00:04 19,9 C 18,9 C 15,0 C 96 % 1016,3 hPa 0,0 l/m 0 min 0 min 0 W/m 3,2 km/h (1 Bft) 97,87 %
01.08.2022 00:08 19,9 C 18,9 C 15,0 C 96 % 1016,3 hPa 0,0 l/m 0 min 0 min 0 W/m 6,4 km/h (2 Bft) 97,89 %
01.08.2022 00:10 19,9 C 18,9 C 15,0 C 96 % 1016,3 hPa 0,0 l/m 0 min 0 min 0 W/m 3,2 km/h (1 Bft) 97,87 %
01.08.2022 00:12 19,9 C 18,9 C 15,0 C 96 % 1016,3 hPa 0,0 l/m 0 min 0 min 0 W/m 6,4 km/h (2 Bft) 95,74 %
01.08.2022 00:14 19,9 C 18,9 C 15,0 C 96 % 1016,3 hPa 0,0 l/m 0 min 0 min 0 W/m 6,4 km/h (2 Bft) 97,87 %
01.08.2022 00:16 19,9 C 18,9 C 15,0 C 96 % 1016,3 hPa 0,0 l/m 0 min 0 min 0 W/m 6,4 km/h (2 Bft) 97,96 %
01.08.2022 00:18 19,9 C 18,9 C 15,0 C 96 % 1016,4 hPa 0,0 l/m 0 min 0 min 0 W/m 6,4 km/h (2 Bft) 97,87 %
01.08.2022 00:20 19,8 C 18,9 C 15,0 C 96 % 1016,4 hPa 0,0 l/m 0 min 0 min 0 W/m 3,2 km/h (1 Bft) 95,65 %
01.08.2022 00:22 19,8 C 18,9 C 15,0 C 96 % 1016,4 hPa 0,0 l/m 0 min 0 min 0 W/m 3,2 km/h (1 Bft) 97,87 %
01.08.2022 00:24 19,8 C 18,9 C 15,0 C 96 % 1016,4 hPa 0,0 l/m 0 min 0 min 0 W/m 9,7 km/h (2 Bft) 97,87 %
01.08.2022 00:26 19,9 C 18,9 C 15,0 C 96 % 1016,4 hPa 0,0 l/m 0 min 0 min 0 W/m 6,4 km/h (2 Bft) 97,87 %
01.08.2022 00:28 19,8 C 18,9 C 15,0 C 96 % 1016,4 hPa 0,0 l/m 0 min 0 min 0 W/m 12,9 km/h (3 Bft) 95,74 %
01.08.2022 00:30 19,8 C 18,9 C 15,0 C 96 % 1016,4 hPa 0,0 l/m 0 min 0 min 0 W/m 12,9 km/h (3 Bft) 97,83 %
01.08.2022 00:32 19,8 C 18,9 C 15,0 C 96 % 1016,4 hPa 0,0 l/m 0 min 0 min 0 W/m 6,4 km/h (2 Bft) 95,74 %
01.08.2022 00:34 19,8 C 18,9 C 15,0 C 96 % 1016,5 hPa 0,0 l/m 0 min 0 min 0 W/m 12,9 km/h (3 Bft) 95,74 %
01.08.2022 00:36 19,8 C 18,9 C 15,0 C 96 % 1016,5 hPa 0,0 l/m 0 min 0 min 0 W/m 6,4 km/h (2 Bft) 95,74 %
01.08.2022 00:38 19,8 C 18,9 C 15,0 C 96 % 1016,5 hPa 0,0 l/m 0 min 0 min 0 W/m 9,7 km/h (2 Bft) 94,29 %
01.08.2022 00:40 19,8 C 18,9 C 15,0 C 96 % 1016,5 hPa 0,0 l/m 0 min 0 min 0 W/m 6,4 km/h (2 Bft) 98,15 %
01.08.2022 00:42 19,8 C 18,9 C 15,0 C 96 % 1016,5 hPa 0,0 l/m 0 min 2 min 0 W/m 25,7 km/h (4 Bft) 97,87 %
01.08.2022 00:44 19,8 C 18,9 C 15,0 C 96 % 1016,4 hPa 0,0 l/m 0 min 0 min 0 W/m 3,2 km/h (1 Bft) 97,83 %
01.08.2022 00:46 19,7 C 18,9 C 15,0 C 96 % 1016,5 hPa 0,0 l/m 0 min 0 min 0 W/m 9,7 km/h (2 Bft) 95,74 %
01.08.2022 00:48 19,7 C 18,9 C 15,0 C 96 % 1016,4 hPa 0,0 l/m 0 min 0 min 0 W/m 9,7 km/h (2 Bft) 97,87 %
01.08.2022 00:50 19,7 C 18,9 C 15,0 C 96 % 1016,4 hPa 0,0 l/m 0 min 0 min 0 W/m 9,7 km/h (2 Bft) 97,87 %
01.08.2022 00:52 19,7 C 18,9 C 15,0 C 96 % 1016,5 hPa 0,0 l/m 0 min 0 min 0 W/m 6,4 km/h (2 Bft) 97,87 %
01.08.2022 00:54 19,7 C 18,9 C 15,0 C 96 % 1016,4 hPa 0,0 l/m 0 min 0 min 0 W/m 6,4 km/h (2 Bft) 95,74 %
01.08.2022 00:56 19,7 C 18,9 C 15,0 C 96 % 1016,5 hPa 0,0 l/m 0 min 0 min 0 W/m 6,4 km/h (2 Bft) 97,83 %
01.08.2022 00:58 19,7 C 18,9 C 15,0 C 96 % 1016,5 hPa 0,0 l/m 0 min 0 min 0 W/m 6,4 km/h (2 Bft) 98,00 %
01.08.2022 01:00 19,6 C 18,9 C 15,0 C 96 % 1016,5 hPa 0,0 l/m 0 min 0 min 0 W/m 6,4 km/h (2 Bft) 97,87 %
01.08.2022 01:02 19,6 C 18,9 C 15,0 C 96 % 1016,5 hPa 0,0 l/m 0 min 0 min 0 W/m 6,4 km/h (2 Bft) 97,87 %
01.08.2022 01:04 19,6 C 18,9 C 15,0 C 96 % 1016,5 hPa 0,0 l/m 0 min 0 min 0 W/m 6,4 km/h (2 Bft) 97,87 %
01.08.2022 01:06 19,6 C 18,9 C 15,0 C 96 % 1016,5 hPa 0,0 l/m 0 min 0 min 0 W/m 3,2 km/h (1 Bft) 97,83 %
01.08.2022 01:08 19,6 C 18,9 C 15,0 C 96 % 1016,5 hPa 0,0 l/m 0 min 0 min 0 W/m 3,2 km/h (1 Bft) 97,87 %
01.08.2022 01:10 19,6 C 18,9 C 15,0 C 96 % 1016,5 hPa 0,0 l/m 0 min 0 min 0 W/m 3,2 km/h (1 Bft) 96,00 %
01.08.2022 01:12 19,6 C 18,9 C 15,0 C 96 % 1016,4 hPa 0,0 l/m 0 min 0 min 0 W/m 3,2 km/h (1 Bft) 93,62 %
01.08.2022 01:14 19,6 C 18,9 C 15,0 C 96 % 1016,5 hPa 0,0 l/m 0 min 0 min 0 W/m 6,4 km/h (2 Bft) 97,87 %
01.08.2022 01:16 19,6 C 18,9 C 15,0 C 96 % 1016,4 hPa 0,0 l/m 0 min 0 min 0 W/m 6,4 km/h (2 Bft) 97,83 %
01.08.2022 01:18 19,6 C 18,9 C 15,0 C 96 % 1016,4 hPa 0,0 l/m 0 min 0 min 0 W/m 6,4 km/h (2 Bft) 95,74 %
01.08.2022 01:20 19,6 C 18,9 C 15,0 C 96 % 1016,4 hPa 0,0 l/m 0 min 0 min 0 W/m 3,2 km/h (1 Bft) 97,87 %
01.08.2022 01:22 19,6 C 18,9 C 15,0 C 96 % 1016,5 hPa 0,0 l/m 0 min 0 min 0 W/m 3,2 km/h (1 Bft) 95,74 %
01.08.2022 01:24 19,6 C 18,9 C 15,0 C 96 % 1016,5 hPa 0,0 l/m 0 min 0 min 0 W/m 3,2 km/h (1 Bft) 97,87 %
01.08.2022 01:26 19,6 C 18,9 C 15,0 C 96 % 1016,5 hPa 0,0 l/m 0 min 0 min 0 W/m 6,4 km/h (2 Bft) 97,87 %
01.08.2022 01:28 19,6 C 18,9 C 15,0 C 96 % 1016,6 hPa 0,0 l/m 0 min 0 min 0 W/m 3,2 km/h (1 Bft) 97,30 %
01.08.2022 01:30 19,6 C 18,9 C 15,0 C 96 % 1016,5 hPa 0,0 l/m 0 min 0 min 0 W/m 3,2 km/h (1 Bft) 97,87 %
01.08.2022 01:32 19,6 C 18,9 C 15,0 C 96 % 1016,6 hPa 0,0 l/m 0 min 0 min 0 W/m 6,4 km/h (2 Bft) 97,83 %
01.08.2022 01:34 19,6 C 18,9 C 15,0 C 96 % 1016,6 hPa 0,0 l/m 0 min 0 min 0 W/m 9,7 km/h (2 Bft) 97,87 %
01.08.2022 01:36 19,6 C 18,9 C 15,0 C 96 % 1016,6 hPa 0,0 l/m 0 min 0 min 0 W/m 6,4 km/h (2 Bft) 98,31 %
01.08.2022 01:38 19,6 C 18,9 C 15,0 C 96 % 1016,6 hPa 0,0 l/m 0 min 0 min 0 W/m 6,4 km/h (2 Bft) 97,14 %
01.08.2022 01:40 19,6 C 18,9 C 15,0 C 96 % 1016,6 hPa 0,0 l/m 0 min 0 min 0 W/m 6,4 km/h (2 Bft) 100,00 %
01.08.2022 01:42 19,6 C 18,9 C 15,0 C 96 % 1016,6 hPa 0,0 l/m 0 min 0 min 0 W/m 6,4 km/h (2 Bft) 97,87 %
01.08.2022 01:44 19,6 C 18,9 C 15,0 C 96 % 1016,6 hPa 0,0 l/m 0 min 0 min 0 W/m 6,4 km/h (2 Bft) 97,83 %
01.08.2022 01:46 19,6 C 18,9 C 15,0 C 96 % 1016,5 hPa 0,0 l/m 0 min 0 min 0 W/m 6,4 km/h (2 Bft) 97,87 %
01.08.2022 01:48 19,6 C 18,9 C 15,0 C 96 % 1016,5 hPa 0,0 l/m 0 min 0 min 0 W/m 6,4 km/h (2 Bft) 97,87 %
01.08.2022 01:50 19,6 C 18,9 C 15,0 C 96 % 1016,5 hPa 0,0 l/m 0 min 0 min 0 W/m 3,2 km/h (1 Bft) 97,87 %
01.08.2022 01:52 19,6 C 18,9 C 15,0 C 96 % 1016,6 hPa 0,0 l/m 0 min 0 min 0 W/m 9,7 km/h (2 Bft) 97,87 %
01.08.2022 01:54 19,6 C 18,9 C 15,0 C 96 % 1016,5 hPa 0,0 l/m 0 min 0 min 0 W/m 9,7 km/h (2 Bft) 100,00 %
01.08.2022 01:56 19,5 C 18,9 C 14,4 C 96 % 1016,6 hPa 0,0 l/m 0 min 0 min 0 W/m 16,1 km/h (3 Bft) 97,83 %
01.08.2022 01:58 19,5 C 18,9 C 14,4 C 96 % 1016,6 hPa 0,0 l/m 0 min 0 min 0 W/m 6,4 km/h (2 Bft) 100,00 %
01.08.2022 02:00 19,4 C 18,9 C 14,4 C 96 % 1016,6 hPa 0,0 l/m 0 min 0 min 0 W/m 12,9 km/h (3 Bft) 100,00 %
01.08.2022 02:02 19,4 C 18,9 C 14,4 C 96 % 1016,6 hPa 0,0 l/m 0 min 0 min 0 W/m 12,9 km/h (3 Bft) 97,87 %
01.08.2022 02:04 19,4 C 18,9 C 14,4 C 96 % 1016,6 hPa 0,0 l/m 0 min 0 min 0 W/m 6,4 km/h (2 Bft) 100,00 %
01.08.2022 02:06 19,4 C 18,9 C 14,4 C 96 % 1016,6 hPa 0,0 l/m 0 min 0 min 0 W/m 9,7 km/h (2 Bft) 100,00 %
01.08.2022 02:08 19,4 C 18,9 C 14,4 C 96 % 1016,6 hPa 0,0 l/m 0 min 0 min 0 W/m 6,4 km/h (2 Bft) 100,00 %
01.08.2022 02:10 19,4 C 18,9 C 14,4 C 96 % 1016,6 hPa 0,0 l/m 0 min 0 min 0 W/m 3,2 km/h (1 Bft) 98,00 %
01.08.2022 02:12 19,4 C 18,9 C 14,4 C 96 % 1016,6 hPa 0,0 l/m 0 min 0 min 0 W/m 6,4 km/h (2 Bft) 97,87 %
01.08.2022 02:14 19,4 C 18,9 C 14,4 C 96 % 1016,5 hPa 0,0 l/m 0 min 0 min 0 W/m 6,4 km/h (2 Bft) 100,00 %
01.08.2022 02:16 19,4 C 18,9 C 14,4 C 96 % 1016,6 hPa 0,0 l/m 0 min 0 min 0 W/m 3,2 km/h (1 Bft) 100,00 %
01.08.2022 02:18 19,4 C 18,9 C 14,4 C 96 % 1016,6 hPa 0,0 l/m 0 min 0 min 0 W/m 6,4 km/h (2 Bft) 100,00 %
01.08.2022 02:20 19,4 C 18,9 C 14,4 C 96 % 1016,6 hPa 0,0 l/m 0 min 0 min 0 W/m 6,4 km/h (2 Bft) 100,00 %
01.08.2022 02:22 19,4 C 18,9 C 14,4 C 96 % 1016,6 hPa 0,0 l/m 0 min 0 min 0 W/m 16,1 km/h (3 Bft) 97,87 %
01.08.2022 02:24 19,4 C 18,9 C 14,4 C 96 % 1016,6 hPa 0,0 l/m 0 min 0 min 0 W/m 6,4 km/h (2 Bft) 100,00 %
01.08.2022 02:26 19,4 C 18,9 C 14,4 C 96 % 1016,6 hPa 0,0 l/m 0 min 0 min 0 W/m 6,4 km/h (2 Bft) 100,00 %
01.08.2022 02:28 19,4 C 18,9 C 14,4 C 96 % 1016,6 hPa 0,0 l/m 0 min 0 min 0 W/m 6,4 km/h (2 Bft) 100,00 %
01.08.2022 02:30 19,4 C 18,9 C 14,4 C 96 % 1016,6 hPa 0,0 l/m 0 min 0 min 0 W/m 6,4 km/h (2 Bft) 97,87 %
01.08.2022 02:32 19,3 C 18,9 C 14,4 C 96 % 1016,6 hPa 0,0 l/m 0 min 0 min 0 W/m 6,4 km/h (2 Bft) 97,87 %
01.08.2022 02:34 19,3 C 18,9 C 14,4 C 96 % 1016,6 hPa 0,0 l/m 0 min 0 min 0 W/m 3,2 km/h (1 Bft) 100,00 %
01.08.2022 02:36 19,3 C 18,9 C 14,4 C 96 % 1016,7 hPa 0,0 l/m 0 min 0 min 0 W/m 6,4 km/h (2 Bft) 97,96 %
01.08.2022 02:38 19,3 C 18,9 C 14,4 C 96 % 1016,7 hPa 0,0 l/m 0 min 0 min 0 W/m 9,7 km/h (2 Bft) 100,00 %
01.08.2022 02:40 19,3 C 18,9 C 14,4 C 96 % 1016,6 hPa 0,0 l/m 0 min 0 min 0 W/m 16,1 km/h (3 Bft) 97,87 %
01.08.2022 02:42 19,3 C 18,9 C 14,4 C 95 % 1016,7 hPa 0,0 l/m 0 min 0 min 0 W/m 6,4 km/h (2 Bft) 98,11 %
01.08.2022 02:44 19,3 C 18,9 C 14,4 C 95 % 1016,6 hPa 0,0 l/m 0 min 0 min 0 W/m 9,7 km/h (2 Bft) 97,87 %
01.08.2022 02:46 19,3 C 18,9 C 14,4 C 95 % 1016,7 hPa 0,0 l/m 0 min 0 min 0 W/m 9,7 km/h (2 Bft) 97,87 %
01.08.2022 02:48 19,3 C 18,9 C 14,4 C 95 % 1016,6 hPa 0,0 l/m 0 min 0 min 0 W/m 9,7 km/h (2 Bft) 95,74 %
01.08.2022 02:50 19,3 C 18,9 C 14,4 C 95 % 1016,6 hPa 0,0 l/m 0 min 0 min 0 W/m 9,7 km/h (2 Bft) 97,87 %
01.08.2022 02:52 19,3 C 18,9 C 14,4 C 95 % 1016,6 hPa 0,0 l/m 0 min 0 min 0 W/m 6,4 km/h (2 Bft) 97,83 %
01.08.2022 02:54 19,3 C 18,9 C 14,4 C 95 % 1016,6 hPa 0,0 l/m 0 min 0 min 0 W/m 6,4 km/h (2 Bft) 98,00 %
01.08.2022 02:56 19,3 C 18,9 C 14,4 C 95 % 1016,6 hPa 0,0 l/m 0 min 0 min 0 W/m 6,4 km/h (2 Bft) 97,30 %
01.08.2022 02:58 19,3 C 18,9 C 14,4 C 95 % 1016,6 hPa 0,0 l/m 0 min 0 min 0 W/m 6,4 km/h (2 Bft) 97,87 %
01.08.2022 03:00 19,3 C 18,9 C 14,4 C 95 % 1016,5 hPa 0,0 l/m 0 min 0 min 0 W/m 3,2 km/h (1 Bft) 98,15 %
01.08.2022 03:02 19,3 C 18,9 C 14,4 C 95 % 1016,5 hPa 0,0 l/m 0 min 0 min 0 W/m 12,9 km/h (3 Bft) 95,74 %
01.08.2022 03:04 19,3 C 18,9 C 14,4 C 95 % 1016,5 hPa 0,0 l/m 0 min 0 min 0 W/m 3,2 km/h (1 Bft) 97,83 %
01.08.2022 03:06 19,3 C 18,9 C 14,4 C 95 % 1016,4 hPa 0,0 l/m 0 min 0 min 0 W/m 6,4 km/h (2 Bft) 95,74 %
01.08.2022 03:08 19,3 C 18,9 C 14,4 C 95 % 1016,4 hPa 0,0 l/m 0 min 0 min 0 W/m 6,4 km/h (2 Bft) 97,87 %
01.08.2022 03:10 19,3 C 18,9 C 14,4 C 95 % 1016,4 hPa 0,0 l/m 0 min 0 min 0 W/m 6,4 km/h (2 Bft) 96,00 %
01.08.2022 03:12 19,3 C 18,9 C 14,4 C 95 % 1016,4 hPa 0,0 l/m 0 min 0 min 0 W/m 9,7 km/h (2 Bft) 95,74 %
01.08.2022 03:14 19,3 C 18,9 C 14,4 C 95 % 1016,4 hPa 0,0 l/m 0 min 0 min 0 W/m 9,7 km/h (2 Bft) 94,59 %
01.08.2022 03:16 19,3 C 18,9 C 15,0 C 95 % 1016,4 hPa 0,0 l/m 0 min 0 min 0 W/m 12,9 km/h (3 Bft) 95,65 %
01.08.2022 03:18 19,3 C 18,9 C 15,0 C 95 % 1016,4 hPa 0,0 l/m 0 min 0 min 0 W/m 6,4 km/h (2 Bft) 95,74 %
01.08.2022 03:20 19,3 C 18,9 C 15,0 C 95 % 1016,4 hPa 0,0 l/m 0 min 0 min 0 W/m 12,9 km/h (3 Bft) 95,74 %
01.08.2022 03:22 19,3 C 18,9 C 15,0 C 95 % 1016,5 hPa 0,0 l/m 0 min 0 min 0 W/m 12,9 km/h (3 Bft) 94,44 %
01.08.2022 03:24 19,3 C 18,9 C 15,0 C 95 % 1016,4 hPa 0,0 l/m 0 min 0 min 0 W/m 6,4 km/h (2 Bft) 91,49 %
01.08.2022 03:26 19,3 C 18,9 C 15,0 C 95 % 1016,4 hPa 0,0 l/m 0 min 0 min 0 W/m 9,7 km/h (2 Bft) 93,48 %
01.08.2022 03:28 19,3 C 18,9 C 15,0 C 95 % 1016,5 hPa 0,0 l/m 0 min 0 min 0 W/m 12,9 km/h (3 Bft) 93,62 %
01.08.2022 03:30 19,3 C 18,9 C 15,0 C 95 % 1016,4 hPa 0,0 l/m 0 min 0 min 0 W/m 6,4 km/h (2 Bft) 93,62 %
01.08.2022 03:32 19,3 C 18,9 C 15,0 C 95 % 1016,4 hPa 0,0 l/m 0 min 0 min 0 W/m 3,2 km/h (1 Bft) 95,74 %
01.08.2022 03:34 19,3 C 18,9 C 15,0 C 95 % 1016,4 hPa 0,0 l/m 0 min 0 min 0 W/m 6,4 km/h (2 Bft) 96,00 %
01.08.2022 03:36 19,3 C 18,3 C 15,0 C 95 % 1016,5 hPa 0,0 l/m 0 min 0 min 0 W/m 9,7 km/h (2 Bft) 93,62 %
01.08.2022 03:38 19,3 C 18,9 C 15,0 C 95 % 1016,5 hPa 0,0 l/m 0 min 0 min 0 W/m 6,4 km/h (2 Bft) 95,65 %
01.08.2022 03:40 19,3 C 18,9 C 15,0 C 95 % 1016,5 hPa 0,0 l/m 0 min 0 min 0 W/m 3,2 km/h (1 Bft) 95,74 %
01.08.2022 03:42 19,3 C 18,9 C 15,0 C 95 % 1016,6 hPa 0,0 l/m 0 min 0 min 0 W/m 6,4 km/h (2 Bft) 95,74 %
01.08.2022 03:44 19,3 C 18,9 C 15,0 C 95 % 1016,6 hPa 0,0 l/m 0 min 0 min 0 W/m 6,4 km/h (2 Bft) 97,87 %
01.08.2022 03:46 19,3 C 18,9 C 15,0 C 95 % 1016,6 hPa 0,0 l/m 0 min 0 min 0 W/m 12,9 km/h (3 Bft) 97,87 %
01.08.2022 03:48 19,3 C 18,9 C 15,0 C 95 % 1016,6 hPa 0,0 l/m 0 min 0 min 0 W/m 6,4 km/h (2 Bft) 97,30 %
01.08.2022 03:50 19,3 C 18,9 C 15,0 C 95 % 1016,6 hPa 0,0 l/m 0 min 0 min 0 W/m 6,4 km/h (2 Bft) 97,87 %
01.08.2022 03:52 19,3 C 18,9 C 15,0 C 95 % 1016,6 hPa 0,0 l/m 0 min 0 min 0 W/m 6,4 km/h (2 Bft) 98,11 %
01.08.2022 03:54 19,3 C 18,9 C 15,0 C 95 % 1016,6 hPa 0,0 l/m 0 min 0 min 0 W/m 6,4 km/h (2 Bft) 100,00 %
01.08.2022 03:56 19,3 C 18,9 C 15,0 C 95 % 1016,6 hPa 0,0 l/m 0 min 0 min 0 W/m 6,4 km/h (2 Bft) 97,87 %
01.08.2022 03:58 19,3 C 18,9 C 15,0 C 95 % 1016,6 hPa 0,0 l/m 0 min 0 min 0 W/m 9,7 km/h (2 Bft) 97,87 %
01.08.2022 04:00 19,3 C 18,9 C 15,0 C 95 % 1016,6 hPa 0,0 l/m 0 min 0 min 0 W/m 12,9 km/h (3 Bft) 97,87 %
01.08.2022 04:02 19,3 C 18,9 C 15,0 C 95 % 1016,6 hPa 0,0 l/m 0 min 0 min 0 W/m 6,4 km/h (2 Bft) 92,86 %
01.08.2022 04:04 19,3 C 18,3 C 15,0 C 95 % 1016,5 hPa 0,0 l/m 0 min 0 min 0 W/m 3,2 km/h (1 Bft) 97,87 %
01.08.2022 04:06 19,3 C 18,3 C 15,0 C 94 % 1016,5 hPa 0,0 l/m 0 min 0 min 0 W/m 6,4 km/h (2 Bft) 100,00 %
01.08.2022 04:08 19,3 C 18,3 C 15,0 C 94 % 1016,5 hPa 0,0 l/m 0 min 0 min 0 W/m 3,2 km/h (1 Bft) 97,87 %
01.08.2022 04:10 19,3 C 18,3 C 15,0 C 95 % 1016,5 hPa 0,0 l/m 0 min 0 min 0 W/m 12,9 km/h (3 Bft) 96,00 %
01.08.2022 04:12 19,3 C 18,3 C 15,0 C 95 % 1016,5 hPa 0,0 l/m 0 min 0 min 0 W/m 19,3 km/h (3 Bft) 97,83 %
01.08.2022 04:14 19,3 C 18,3 C 15,0 C 95 % 1016,5 hPa 0,0 l/m 0 min 0 min 0 W/m 12,9 km/h (3 Bft) 97,87 %
01.08.2022 04:16 19,3 C 18,3 C 15,0 C 95 % 1016,5 hPa 0,0 l/m 0 min 0 min 0 W/m 6,4 km/h (2 Bft) 100,00 %
01.08.2022 04:18 19,3 C 18,3 C 15,0 C 95 % 1016,5 hPa 0,0 l/m 0 min 0 min 0 W/m 6,4 km/h (2 Bft) 100,00 %
01.08.2022 04:20 19,3 C 18,3 C 15,6 C 95 % 1016,4 hPa 0,0 l/m 0 min 0 min 0 W/m 3,2 km/h (1 Bft) 100,00 %
01.08.2022 04:22 19,3 C 18,3 C 15,6 C 95 % 1016,4 hPa 0,0 l/m 0 min 0 min 0 W/m 9,7 km/h (2 Bft) 100,00 %
01.08.2022 04:24 19,3 C 18,3 C 15,6 C 95 % 1016,4 hPa 0,0 l/m 0 min 0 min 0 W/m 12,9 km/h (3 Bft) 100,00 %
01.08.2022 04:26 19,3 C 18,3 C 15,6 C 95 % 1016,3 hPa 0,0 l/m 0 min 0 min 0 W/m 3,2 km/h (1 Bft) 100,00 %
01.08.2022 04:28 19,3 C 18,3 C 15,6 C 95 % 1016,4 hPa 0,0 l/m 0 min 0 min 0 W/m 6,4 km/h (2 Bft) 100,00 %
01.08.2022 04:30 19,3 C 18,3 C 15,6 C 95 % 1016,4 hPa 0,0 l/m 0 min 0 min 0 W/m 9,7 km/h (2 Bft) 100,00 %
01.08.2022 04:32 19,3 C 18,3 C 15,6 C 95 % 1016,3 hPa 0,0 l/m 0 min 0 min 0 W/m 6,4 km/h (2 Bft) 100,00 %
01.08.2022 04:34 19,3 C 18,3 C 15,6 C 95 % 1016,4 hPa 0,0 l/m 0 min 0 min 0 W/m 6,4 km/h (2 Bft) 97,87 %
01.08.2022 04:36 19,3 C 18,3 C 15,6 C 95 % 1016,3 hPa 0,0 l/m 0 min 0 min 0 W/m 6,4 km/h (2 Bft) 100,00 %
01.08.2022 04:38 19,3 C 18,3 C 15,6 C 95 % 1016,4 hPa 0,0 l/m 0 min 0 min 0 W/m 6,4 km/h (2 Bft) 100,00 %
01.08.2022 04:40 19,3 C 18,3 C 15,6 C 95 % 1016,4 hPa 0,0 l/m 0 min 0 min 0 W/m 6,4 km/h (2 Bft) 100,00 %
01.08.2022 04:42 19,3 C 18,3 C 15,6 C 95 % 1016,3 hPa 0,0 l/m 0 min 0 min 0 W/m 3,2 km/h (1 Bft) 100,00 %
01.08.2022 04:44 19,3 C 18,3 C 15,6 C 95 % 1016,4 hPa 0,0 l/m 0 min 0 min 0 W/m 6,4 km/h (2 Bft) 100,00 %
01.08.2022 04:46 19,3 C 18,3 C 15,6 C 95 % 1016,4 hPa 0,0 l/m 0 min 0 min 0 W/m 6,4 km/h (2 Bft) 100,00 %
01.08.2022 04:48 19,3 C 18,3 C 15,6 C 95 % 1016,4 hPa 0,0 l/m 0 min 0 min 0 W/m 6,4 km/h (2 Bft) 100,00 %
01.08.2022 04:50 19,3 C 18,3 C 15,6 C 95 % 1016,4 hPa 0,0 l/m 0 min 0 min 0 W/m 6,4 km/h (2 Bft) 100,00 %
01.08.2022 04:52 19,3 C 18,3 C 15,6 C 95 % 1016,4 hPa 0,0 l/m 0 min 0 min 0 W/m 6,4 km/h (2 Bft) 100,00 %
01.08.2022 04:54 19,3 C 18,3 C 15,6 C 95 % 1016,4 hPa 0,0 l/m 0 min 0 min 0 W/m 6,4 km/h (2 Bft) 100,00 %
01.08.2022 04:56 19,3 C 18,3 C 15,6 C 95 % 1016,4 hPa 0,0 l/m 0 min 0 min 0 W/m 9,7 km/h (2 Bft) 100,00 %
01.08.2022 04:58 19,3 C 18,3 C 15,6 C 95 % 1016,4 hPa 0,0 l/m 0 min 0 min 0 W/m 6,4 km/h (2 Bft) 100,00 %
01.08.2022 05:00 19,3 C 18,3 C 15,6 C 95 % 1016,4 hPa 0,0 l/m 0 min 0 min 0 W/m 6,4 km/h (2 Bft) 100,00 %
01.08.2022 05:02 19,3 C 18,3 C 15,0 C 95 % 1016,4 hPa 0,0 l/m 0 min 0 min 0 W/m 3,2 km/h (1 Bft) 100,00 %
01.08.2022 05:04 19,2 C 18,3 C 15,0 C 95 % 1016,3 hPa 0,0 l/m 0 min 0 min 0 W/m 6,4 km/h (2 Bft) 100,00 %
01.08.2022 05:06 19,2 C 18,3 C 15,6 C 95 % 1016,3 hPa 0,0 l/m 0 min 0 min 0 W/m 6,4 km/h (2 Bft) 97,87 %
01.08.2022 05:08 19,2 C 18,3 C 15,6 C 95 % 1016,4 hPa 0,0 l/m 0 min 0 min 0 W/m 9,7 km/h (2 Bft) 97,87 %
01.08.2022 05:10 19,2 C 18,3 C 15,6 C 95 % 1016,4 hPa 0,0 l/m 0 min 0 min 0 W/m 9,7 km/h (2 Bft) 95,74 %
01.08.2022 05:12 19,2 C 18,3 C 15,6 C 95 % 1016,4 hPa 0,0 l/m 0 min 0 min 0 W/m 3,2 km/h (1 Bft) 97,87 %
01.08.2022 05:14 19,2 C 18,3 C 15,0 C 95 % 1016,4 hPa 0,0 l/m 0 min 0 min 0 W/m 3,2 km/h (1 Bft) 98,11 %
01.08.2022 05:16 19,2 C 18,3 C 15,0 C 95 % 1016,4 hPa 0,0 l/m 0 min 0 min 0 W/m 6,4 km/h (2 Bft) 97,87 %
01.08.2022 05:18 19,2 C 18,3 C 15,0 C 95 % 1016,4 hPa 0,0 l/m 0 min 0 min 0 W/m 6,4 km/h (2 Bft) 97,87 %
01.08.2022 05:20 19,2 C 18,3 C 15,6 C 95 % 1016,4 hPa 0,0 l/m 0 min 0 min 0 W/m 6,4 km/h (2 Bft) 97,87 %
01.08.2022 05:22 19,2 C 18,3 C 15,6 C 95 % 1016,4 hPa 0,0 l/m 0 min 0 min 0 W/m 6,4 km/h (2 Bft) 97,87 %
01.08.2022 05:24 19,2 C 18,3 C 15,0 C 95 % 1016,4 hPa 0,0 l/m 0 min 0 min 0 W/m 9,7 km/h (2 Bft) 97,83 %
01.08.2022 05:26 19,2 C 18,3 C 15,0 C 95 % 1016,5 hPa 0,0 l/m 0 min 0 min 0 W/m 6,4 km/h (2 Bft) 97,87 %
01.08.2022 05:28 19,2 C 18,3 C 15,0 C 95 % 1016,5 hPa 0,0 l/m 0 min 0 min 0 W/m 3,2 km/h (1 Bft) 98,00 %
01.08.2022 05:30 19,2 C 18,3 C 15,0 C 95 % 1016,4 hPa 0,0 l/m 0 min 0 min 0 W/m 9,7 km/h (2 Bft) 95,74 %
01.08.2022 05:32 19,2 C 18,3 C 15,6 C 95 % 1016,5 hPa 0,0 l/m 0 min 0 min 0 W/m 6,4 km/h (2 Bft) 97,87 %
01.08.2022 05:34 19,2 C 18,3 C 15,6 C 95 % 1016,5 hPa 0,0 l/m 0 min 0 min 0 W/m 6,4 km/h (2 Bft) 95,74 %
01.08.2022 05:36 19,2 C 18,3 C 15,6 C 95 % 1016,5 hPa 0,0 l/m 0 min 0 min 0 W/m 6,4 km/h (2 Bft) 95,65 %
01.08.2022 05:38 19,2 C 18,3 C 15,0 C 95 % 1016,5 hPa 0,0 l/m 0 min 0 min 0 W/m 12,9 km/h (3 Bft) 97,87 %
01.08.2022 05:40 19,2 C 18,3 C 15,6 C 95 % 1016,5 hPa 0,0 l/m 0 min 0 min 0 W/m 3,2 km/h (1 Bft) 97,30 %
01.08.2022 05:42 19,2 C 18,3 C 15,6 C 95 % 1016,5 hPa 0,0 l/m 0 min 0 min 0 W/m 6,4 km/h (2 Bft) 95,74 %
01.08.2022 05:44 19,2 C 18,3 C 15,6 C 95 % 1016,6 hPa 0,0 l/m 0 min 0 min 0 W/m 3,2 km/h (1 Bft) 93,62 %
01.08.2022 05:46 19,2 C 18,3 C 15,6 C 95 % 1016,5 hPa 0,0 l/m 0 min 0 min 0 W/m 6,4 km/h (2 Bft) 97,87 %
01.08.2022 05:48 19,2 C 18,3 C 15,6 C 95 % 1016,5 hPa 0,0 l/m 0 min 0 min 0 W/m 6,4 km/h (2 Bft) 97,87 %
01.08.2022 05:50 19,2 C 18,3 C 15,6 C 95 % 1016,5 hPa 0,0 l/m 0 min 0 min 0 W/m 6,4 km/h (2 Bft) 97,83 %
01.08.2022 05:52 19,2 C 18,3 C 15,6 C 95 % 1016,5 hPa 0,0 l/m 0 min 0 min 0 W/m 6,4 km/h (2 Bft) 95,74 %
01.08.2022 05:54 19,2 C 18,3 C 15,0 C 95 % 1016,5 hPa 0,0 l/m 0 min 0 min 0 W/m 6,4 km/h (2 Bft) 97,87 %
01.08.2022 05:56 19,2 C 18,3 C 15,6 C 95 % 1016,5 hPa 0,0 l/m 0 min 0 min 0 W/m 6,4 km/h (2 Bft) 97,87 %
01.08.2022 05:58 19,2 C 18,3 C 15,6 C 95 % 1016,6 hPa 0,0 l/m 0 min 0 min 0 W/m 6,4 km/h (2 Bft) 97,87 %
01.08.2022 06:00 19,2 C 18,3 C 15,0 C 95 % 1016,6 hPa 0,0 l/m 0 min 0 min 0 W/m 3,2 km/h (1 Bft) 97,87 %
01.08.2022 06:02 19,2 C 18,3 C 15,0 C 95 % 1016,6 hPa 0,0 l/m 0 min 0 min 0 W/m 3,2 km/h (1 Bft) 95,65 %
01.08.2022 06:04 19,2 C 18,3 C 15,0 C 95 % 1016,6 hPa 0,0 l/m 0 min 0 min 0 W/m 9,7 km/h (2 Bft) 97,87 %
01.08.2022 06:07 19,2 C 18,3 C 15,0 C 95 % 1016,5 hPa 0,0 l/m 0 min 0 min 5 W/m 9,7 km/h (2 Bft) 97,87 %
01.08.2022 06:10 19,2 C 18,3 C 15,0 C 95 % 1016,6 hPa 0,0 l/m 0 min 0 min 3 W/m 9,7 km/h (2 Bft) 97,32 %
01.08.2022 06:12 19,2 C 18,3 C 15,0 C 95 % 1016,6 hPa 0,0 l/m 0 min 0 min 5 W/m 6,4 km/h (2 Bft) 95,74 %
01.08.2022 06:14 19,2 C 18,3 C 15,0 C 95 % 1016,6 hPa 0,0 l/m 0 min 0 min 6 W/m 6,4 km/h (2 Bft) 97,87 %
01.08.2022 06:16 19,2 C 18,3 C 15,0 C 95 % 1016,6 hPa 0,0 l/m 0 min 0 min 7 W/m 6,4 km/h (2 Bft) 93,62 %
01.08.2022 06:18 19,2 C 18,3 C 15,0 C 95 % 1016,6 hPa 0,0 l/m 0 min 0 min 7 W/m 6,4 km/h (2 Bft) 97,87 %
01.08.2022 06:20 19,2 C 18,3 C 15,0 C 95 % 1016,6 hPa 0,0 l/m 0 min 0 min 7 W/m 3,2 km/h (1 Bft) 100,00 %
01.08.2022 06:22 19,1 C 18,3 C 15,0 C 95 % 1016,6 hPa 0,0 l/m 0 min 0 min 7 W/m 3,2 km/h (1 Bft) 100,00 %
01.08.2022 06:24 19,2 C 18,3 C 15,0 C 95 % 1016,6 hPa 0,0 l/m 0 min 0 min 7 W/m 6,4 km/h (2 Bft) 93,62 %
01.08.2022 06:26 19,1 C 18,3 C 15,0 C 95 % 1016,6 hPa 0,0 l/m 0 min 0 min 7 W/m 3,2 km/h (1 Bft) 97,87 %
01.08.2022 06:28 19,1 C 18,3 C 15,0 C 95 % 1016,6 hPa 0,0 l/m 0 min 0 min 8 W/m 3,2 km/h (1 Bft) 95,74 %
01.08.2022 06:30 19,1 C 18,3 C 15,0 C 95 % 1016,7 hPa 0,0 l/m 0 min 0 min 10 W/m 6,4 km/h (2 Bft) 95,74 %
01.08.2022 06:32 19,2 C 18,3 C 15,0 C 96 % 1016,6 hPa 0,0 l/m 0 min 0 min 11 W/m 3,2 km/h (1 Bft) 93,62 %
01.08.2022 06:34 19,1 C 18,3 C 15,0 C 96 % 1016,7 hPa 0,0 l/m 0 min 0 min 11 W/m 3,2 km/h (1 Bft) 97,83 %
01.08.2022 06:36 19,1 C 18,3 C 15,0 C 96 % 1016,7 hPa 0,0 l/m 0 min 0 min 10 W/m 6,4 km/h (2 Bft) 97,87 %
01.08.2022 06:38 19,1 C 18,3 C 15,0 C 96 % 1016,8 hPa 0,0 l/m 0 min 0 min 7 W/m 3,2 km/h (1 Bft) 95,74 %
01.08.2022 06:40 19,1 C 18,3 C 15,0 C 96 % 1016,8 hPa 0,0 l/m 0 min 0 min 9 W/m 3,2 km/h (1 Bft) 97,87 %
01.08.2022 06:42 19,1 C 18,3 C 15,0 C 96 % 1016,8 hPa 0,0 l/m 0 min 0 min 7 W/m 6,4 km/h (2 Bft) 97,87 %
01.08.2022 06:44 19,1 C 18,3 C 15,0 C 96 % 1016,8 hPa 0,0 l/m 0 min 0 min 7 W/m 3,2 km/h (1 Bft) 97,87 %
01.08.2022 06:46 19,1 C 18,3 C 15,0 C 96 % 1016,8 hPa 0,0 l/m 0 min 0 min 7 W/m 3,2 km/h (1 Bft) 97,83 %
01.08.2022 06:48 19,1 C 18,3 C 15,0 C 96 % 1016,8 hPa 0,0 l/m 0 min 0 min 9 W/m 3,2 km/h (1 Bft) 97,87 %
01.08.2022 06:50 19,1 C 18,3 C 15,6 C 96 % 1016,9 hPa 0,0 l/m 0 min 0 min 11 W/m 3,2 km/h (1 Bft) 97,87 %
01.08.2022 06:52 19,1 C 18,3 C 15,6 C 96 % 1016,9 hPa 0,0 l/m 0 min 0 min 10 W/m 3,2 km/h (1 Bft) 97,87 %
01.08.2022 06:54 19,1 C 18,3 C 15,6 C 96 % 1017,0 hPa 0,0 l/m 0 min 0 min 9 W/m 3,2 km/h (1 Bft) 93,62 %
01.08.2022 06:56 19,1 C 18,3 C 15,0 C 96 % 1017,0 hPa 0,0 l/m 0 min 0 min 9 W/m 3,2 km/h (1 Bft) 97,87 %
01.08.2022 06:58 19,1 C 18,3 C 15,0 C 96 % 1017,0 hPa 0,0 l/m 0 min 0 min 9 W/m 3,2 km/h (1 Bft) 97,83 %
01.08.2022 07:00 19,1 C 18,3 C 15,0 C 96 % 1016,9 hPa 0,0 l/m 0 min 0 min 9 W/m 3,2 km/h (1 Bft) 95,74 %
01.08.2022 07:02 19,1 C 18,3 C 15,0 C 96 % 1016,9 hPa 0,0 l/m 0 min 0 min 10 W/m 3,2 km/h (1 Bft) 93,62 %
01.08.2022 07:04 19,2 C 18,3 C 15,0 C 96 % 1017,0 hPa 0,0 l/m 0 min 0 min 11 W/m 6,4 km/h (2 Bft) 93,62 %
01.08.2022 07:06 19,1 C 18,3 C 15,0 C 96 % 1017,0 hPa 0,0 l/m 0 min 0 min 11 W/m 6,4 km/h (2 Bft) 93,62 %
01.08.2022 07:08 19,1 C 18,3 C 15,0 C 96 % 1017,0 hPa 0,0 l/m 0 min 0 min 14 W/m 3,2 km/h (1 Bft) 95,65 %
01.08.2022 07:10 19,1 C 18,3 C 15,0 C 96 % 1017,0 hPa 0,0 l/m 0 min 0 min 15 W/m 3,2 km/h (1 Bft) 93,62 %
01.08.2022 07:12 19,1 C 18,3 C 15,0 C 96 % 1017,0 hPa 0,0 l/m 0 min 0 min 14 W/m 3,2 km/h (1 Bft) 95,74 %
01.08.2022 07:14 19,1 C 18,3 C 15,6 C 96 % 1017,0 hPa 0,0 l/m 0 min 0 min 19 W/m 6,4 km/h (2 Bft) 97,87 %
01.08.2022 07:16 19,1 C 18,3 C 15,0 C 96 % 1017,1 hPa 0,0 l/m 0 min 0 min 23 W/m 3,2 km/h (1 Bft) 97,87 %
01.08.2022 07:18 19,1 C 18,3 C 15,6 C 96 % 1017,1 hPa 0,0 l/m 0 min 0 min 25 W/m 6,4 km/h (2 Bft) 97,87 %
01.08.2022 07:20 19,1 C 18,3 C 15,6 C 96 % 1017,2 hPa 0,0 l/m 0 min 0 min 25 W/m 6,4 km/h (2 Bft) 97,83 %
01.08.2022 07:22 19,1 C 18,3 C 15,6 C 96 % 1017,2 hPa 0,0 l/m 0 min 0 min 28 W/m 3,2 km/h (1 Bft) 97,87 %
01.08.2022 07:24 19,1 C 18,3 C 15,6 C 96 % 1017,1 hPa 0,0 l/m 0 min 0 min 32 W/m 3,2 km/h (1 Bft) 95,74 %
01.08.2022 07:26 19,1 C 18,3 C 15,6 C 96 % 1017,1 hPa 0,0 l/m 0 min 0 min 38 W/m 3,2 km/h (1 Bft) 97,87 %
01.08.2022 07:28 19,2 C 18,3 C 15,6 C 96 % 1017,1 hPa 0,0 l/m 0 min 0 min 41 W/m 3,2 km/h (1 Bft) 97,87 %
01.08.2022 07:30 19,2 C 18,3 C 15,6 C 96 % 1017,1 hPa 0,0 l/m 0 min 0 min 36 W/m 3,2 km/h (1 Bft) 97,87 %
01.08.2022 07:32 19,2 C 18,9 C 15,6 C 96 % 1017,2 hPa 0,0 l/m 0 min 0 min 37 W/m 6,4 km/h (2 Bft) 95,65 %
01.08.2022 07:34 19,2 C 18,9 C 15,6 C 96 % 1017,2 hPa 0,0 l/m 0 min 0 min 40 W/m 6,4 km/h (2 Bft) 100,00 %
01.08.2022 07:36 19,2 C 18,9 C 15,6 C 96 % 1017,2 hPa 0,0 l/m 0 min 0 min 49 W/m 9,7 km/h (2 Bft) 100,00 %
01.08.2022 07:38 19,2 C 18,9 C 15,6 C 96 % 1017,2 hPa 0,0 l/m 0 min 0 min 54 W/m 12,9 km/h (3 Bft) 100,00 %
01.08.2022 07:40 19,2 C 18,9 C 15,6 C 96 % 1017,2 hPa 0,0 l/m 0 min 0 min 56 W/m 9,7 km/h (2 Bft) 100,00 %
01.08.2022 07:42 19,2 C 18,9 C 15,6 C 96 % 1017,2 hPa 0,0 l/m 0 min 0 min 57 W/m 6,4 km/h (2 Bft) 100,00 %
01.08.2022 07:44 19,2 C 18,9 C 15,6 C 96 % 1017,2 hPa 0,0 l/m 0 min 0 min 66 W/m 12,9 km/h (3 Bft) 100,00 %
01.08.2022 07:46 19,2 C 18,9 C 15,6 C 96 % 1017,3 hPa 0,0 l/m 0 min 0 min 62 W/m 6,4 km/h (2 Bft) 100,00 %
01.08.2022 07:48 19,2 C 18,9 C 15,6 C 96 % 1017,3 hPa 0,0 l/m 0 min 0 min 60 W/m 6,4 km/h (2 Bft) 100,00 %
01.08.2022 07:50 19,2 C 18,9 C 15,6 C 96 % 1017,3 hPa 0,0 l/m 0 min 0 min 62 W/m 6,4 km/h (2 Bft) 100,00 %
01.08.2022 07:52 19,2 C 18,9 C 15,6 C 96 % 1017,3 hPa 0,0 l/m 0 min 0 min 61 W/m 6,4 km/h (2 Bft) 100,00 %
01.08.2022 07:54 19,2 C 18,9 C 15,6 C 96 % 1017,3 hPa 0,0 l/m 0 min 0 min 60 W/m 6,4 km/h (2 Bft) 100,00 %
01.08.2022 07:56 19,2 C 18,9 C 15,6 C 96 % 1017,3 hPa 0,0 l/m 0 min 0 min 63 W/m 9,7 km/h (2 Bft) 100,00 %
01.08.2022 07:58 19,2 C 18,9 C 15,6 C 96 % 1017,3 hPa 0,0 l/m 0 min 0 min 71 W/m 9,7 km/h (2 Bft) 100,00 %
01.08.2022 08:00 19,2 C 18,9 C 15,6 C 96 % 1017,3 hPa 0,0 l/m 0 min 0 min 71 W/m 9,7 km/h (2 Bft) 100,00 %
01.08.2022 08:02 19,2 C 18,9 C 15,6 C 96 % 1017,3 hPa 0,0 l/m 0 min 0 min 68 W/m 9,7 km/h (2 Bft) 100,00 %
01.08.2022 08:04 19,2 C 18,9 C 15,6 C 95 % 1017,3 hPa 0,0 l/m 0 min 0 min 62 W/m 12,9 km/h (3 Bft) 100,00 %
01.08.2022 08:06 19,2 C 18,9 C 15,6 C 95 % 1017,3 hPa 0,0 l/m 0 min 0 min 44 W/m 9,7 km/h (2 Bft) 97,83 %
01.08.2022 08:08 19,2 C 18,9 C 15,6 C 95 % 1017,3 hPa 0,0 l/m 0 min 0 min 48 W/m 12,9 km/h (3 Bft) 100,00 %
01.08.2022 08:10 19,2 C 18,9 C 15,6 C 95 % 1017,3 hPa 0,0 l/m 0 min 0 min 62 W/m 12,9 km/h (3 Bft) 100,00 %
01.08.2022 08:12 19,2 C 18,9 C 15,6 C 95 % 1017,3 hPa 0,0 l/m 0 min 0 min 74 W/m 3,2 km/h (1 Bft) 97,87 %
01.08.2022 08:14 19,2 C 18,9 C 15,6 C 95 % 1017,3 hPa 0,0 l/m 0 min 0 min 82 W/m 3,2 km/h (1 Bft) 100,00 %
01.08.2022 08:16 19,2 C 18,9 C 15,6 C 95 % 1017,3 hPa 0,0 l/m 0 min 0 min 81 W/m 6,4 km/h (2 Bft) 97,87 %
01.08.2022 08:18 19,3 C 18,9 C 15,6 C 95 % 1017,3 hPa 0,0 l/m 0 min 0 min 71 W/m 3,2 km/h (1 Bft) 93,48 %
01.08.2022 08:20 19,3 C 18,9 C 15,6 C 95 % 1017,2 hPa 0,0 l/m 0 min 0 min 62 W/m 3,2 km/h (1 Bft) 95,74 %
01.08.2022 08:22 19,3 C 18,9 C 15,6 C 95 % 1017,3 hPa 0,0 l/m 0 min 0 min 56 W/m 6,4 km/h (2 Bft) 97,87 %
01.08.2022 08:24 19,3 C 18,9 C 15,6 C 95 % 1017,2 hPa 0,0 l/m 0 min 0 min 58 W/m 6,4 km/h (2 Bft) 97,87 %
01.08.2022 08:26 19,3 C 18,9 C 15,6 C 95 % 1017,2 hPa 0,0 l/m 0 min 0 min 62 W/m 6,4 km/h (2 Bft) 97,87 %
01.08.2022 08:28 19,3 C 18,9 C 15,6 C 95 % 1017,3 hPa 0,0 l/m 0 min 0 min 80 W/m 6,4 km/h (2 Bft) 97,87 %
01.08.2022 08:30 19,3 C 18,9 C 15,6 C 95 % 1017,2 hPa 0,0 l/m 0 min 0 min 86 W/m 9,7 km/h (2 Bft) 97,87 %
01.08.2022 08:32 19,3 C 18,9 C 15,6 C 94 % 1017,3 hPa 0,0 l/m 0 min 0 min 84 W/m 12,9 km/h (3 Bft) 97,83 %
01.08.2022 08:34 19,3 C 18,9 C 15,6 C 94 % 1017,3 hPa 0,0 l/m 0 min 0 min 83 W/m 9,7 km/h (2 Bft) 95,74 %
01.08.2022 08:36 19,3 C 18,9 C 15,6 C 94 % 1017,3 hPa 0,0 l/m 0 min 0 min 88 W/m 9,7 km/h (2 Bft) 97,87 %
01.08.2022 08:38 19,3 C 18,9 C 15,6 C 94 % 1017,3 hPa 0,0 l/m 0 min 0 min 96 W/m 3,2 km/h (1 Bft) 97,87 %
01.08.2022 08:40 19,3 C 19,4 C 15,6 C 94 % 1017,3 hPa 0,0 l/m 0 min 0 min 105 W/m 6,4 km/h (2 Bft) 97,87 %
01.08.2022 08:42 19,3 C 19,4 C 16,1 C 94 % 1017,2 hPa 0,0 l/m 0 min 0 min 122 W/m 6,4 km/h (2 Bft) 97,83 %
01.08.2022 08:44 19,3 C 19,4 C 16,1 C 94 % 1017,2 hPa 0,0 l/m 0 min 0 min 136 W/m 9,7 km/h (2 Bft) 93,62 %
01.08.2022 08:46 19,4 C 19,4 C 16,1 C 94 % 1017,3 hPa 0,0 l/m 0 min 0 min 138 W/m 6,4 km/h (2 Bft) 97,87 %
01.08.2022 08:48 19,4 C 19,4 C 16,1 C 94 % 1017,3 hPa 0,0 l/m 0 min 0 min 110 W/m 3,2 km/h (1 Bft) 97,87 %
01.08.2022 08:50 19,5 C 20,0 C 16,1 C 94 % 1017,3 hPa 0,0 l/m 0 min 0 min 141 W/m 3,2 km/h (1 Bft) 95,74 %
01.08.2022 08:52 19,5 C 20,0 C 16,1 C 94 % 1017,3 hPa 0,0 l/m 0 min 0 min 156 W/m 6,4 km/h (2 Bft) 95,74 %
01.08.2022 08:54 19,6 C 20,0 C 16,1 C 94 % 1017,3 hPa 0,0 l/m 0 min 0 min 174 W/m 9,7 km/h (2 Bft) 95,65 %
01.08.2022 08:56 19,6 C 20,0 C 16,1 C 94 % 1017,3 hPa 0,0 l/m 0 min 0 min 152 W/m 6,4 km/h (2 Bft) 97,87 %
01.08.2022 08:58 19,6 C 20,0 C 16,1 C 94 % 1017,3 hPa 0,0 l/m 0 min 0 min 144 W/m 9,7 km/h (2 Bft) 97,87 %
01.08.2022 09:00 19,6 C 20,0 C 16,7 C 93 % 1017,3 hPa 0,0 l/m 0 min 0 min 147 W/m 3,2 km/h (1 Bft) 93,62 %
01.08.2022 09:02 19,7 C 20,0 C 16,7 C 93 % 1017,4 hPa 0,0 l/m 0 min 0 min 158 W/m 9,7 km/h (2 Bft) 97,87 %
01.08.2022 09:04 19,7 C 20,0 C 16,7 C 93 % 1017,4 hPa 0,0 l/m 0 min 0 min 169 W/m 6,4 km/h (2 Bft) 97,87 %
01.08.2022 09:06 19,7 C 20,0 C 16,7 C 93 % 1017,3 hPa 0,0 l/m 0 min 0 min 178 W/m 9,7 km/h (2 Bft) 97,83 %
01.08.2022 09:08 19,8 C 20,0 C 16,7 C 93 % 1017,4 hPa 0,0 l/m 0 min 0 min 199 W/m 9,7 km/h (2 Bft) 97,87 %
01.08.2022 09:10 19,8 C 20,6 C 16,7 C 92 % 1017,4 hPa 0,0 l/m 2 min 0 min 259 W/m 9,7 km/h (2 Bft) 93,62 %
01.08.2022 09:12 19,8 C 20,6 C 16,7 C 92 % 1017,4 hPa 0,0 l/m 0 min 0 min 224 W/m 6,4 km/h (2 Bft) 97,87 %
01.08.2022 09:14 19,9 C 21,1 C 17,2 C 92 % 1017,4 hPa 0,0 l/m 2 min 0 min 248 W/m 6,4 km/h (2 Bft) 97,87 %
01.08.2022 09:16 19,9 C 21,1 C 17,2 C 92 % 1017,3 hPa 0,0 l/m 2 min 0 min 261 W/m 6,4 km/h (2 Bft) 97,87 %
01.08.2022 09:18 20,0 C 22,2 C 17,2 C 92 % 1017,4 hPa 0,0 l/m 0 min 0 min 218 W/m 9,7 km/h (2 Bft) 95,65 %
01.08.2022 09:20 20,1 C 22,8 C 17,8 C 91 % 1017,3 hPa 0,0 l/m 2 min 0 min 533 W/m 3,2 km/h (1 Bft) 95,74 %
01.08.2022 09:22 20,2 C 22,2 C 17,8 C 91 % 1017,3 hPa 0,0 l/m 2 min 0 min 327 W/m 6,4 km/h (2 Bft) 95,74 %
01.08.2022 09:24 20,3 C 21,7 C 17,8 C 91 % 1017,3 hPa 0,0 l/m 2 min 0 min 291 W/m 6,4 km/h (2 Bft) 97,87 %
01.08.2022 09:26 20,3 C 21,7 C 17,8 C 91 % 1017,3 hPa 0,0 l/m 2 min 0 min 255 W/m 6,4 km/h (2 Bft) 93,62 %
01.08.2022 09:28 20,4 C 21,7 C 17,8 C 90 % 1017,3 hPa 0,0 l/m 0 min 0 min 233 W/m 6,4 km/h (2 Bft) 95,65 %
01.08.2022 09:30 20,4 C 21,7 C 17,8 C 90 % 1017,3 hPa 0,0 l/m 0 min 0 min 245 W/m 9,7 km/h (2 Bft) 95,74 %
01.08.2022 09:32 20,4 C 21,1 C 17,8 C 90 % 1017,3 hPa 0,0 l/m 2 min 0 min 279 W/m 12,9 km/h (3 Bft) 95,74 %
01.08.2022 09:34 20,5 C 21,1 C 17,8 C 89 % 1017,3 hPa 0,0 l/m 2 min 0 min 275 W/m 6,4 km/h (2 Bft) 97,87 %
01.08.2022 09:36 20,6 C 21,1 C 17,2 C 89 % 1017,3 hPa 0,0 l/m 2 min 0 min 268 W/m 9,7 km/h (2 Bft) 97,87 %
01.08.2022 09:38 20,6 C 21,1 C 17,8 C 89 % 1017,4 hPa 0,0 l/m 0 min 0 min 246 W/m 9,7 km/h (2 Bft) 97,87 %
01.08.2022 09:40 20,6 C 21,1 C 17,2 C 89 % 1017,4 hPa 0,0 l/m 0 min 0 min 225 W/m 6,4 km/h (2 Bft) 97,83 %
01.08.2022 09:42 20,6 C 21,1 C 17,2 C 88 % 1017,4 hPa 0,0 l/m 0 min 0 min 200 W/m 6,4 km/h (2 Bft) 95,74 %
01.08.2022 09:44 20,7 C 20,6 C 17,2 C 88 % 1017,5 hPa 0,0 l/m 0 min 0 min 204 W/m 6,4 km/h (2 Bft) 97,87 %
01.08.2022 09:46 20,7 C 20,6 C 17,2 C 88 % 1017,4 hPa 0,0 l/m 0 min 0 min 220 W/m 6,4 km/h (2 Bft) 97,87 %
01.08.2022 09:48 20,7 C 21,1 C 17,2 C 88 % 1017,5 hPa 0,0 l/m 0 min 0 min 244 W/m 3,2 km/h (1 Bft) 97,87 %
01.08.2022 09:50 20,7 C 21,1 C 17,2 C 88 % 1017,5 hPa 0,0 l/m 0 min 0 min 242 W/m 12,9 km/h (3 Bft) 97,87 %
01.08.2022 09:52 20,8 C 21,1 C 17,2 C 88 % 1017,5 hPa 0,0 l/m 0 min 0 min 232 W/m 9,7 km/h (2 Bft) 97,83 %
01.08.2022 09:54 20,8 C 21,1 C 17,2 C 88 % 1017,5 hPa 0,0 l/m 0 min 0 min 243 W/m 9,7 km/h (2 Bft) 97,87 %
01.08.2022 09:56 20,8 C 21,1 C 17,8 C 88 % 1017,5 hPa 0,0 l/m 0 min 0 min 253 W/m 12,9 km/h (3 Bft) 97,87 %
01.08.2022 09:58 20,8 C 21,1 C 17,8 C 88 % 1017,5 hPa 0,0 l/m 0 min 0 min 252 W/m 9,7 km/h (2 Bft) 97,87 %
01.08.2022 10:00 20,9 C 21,1 C 17,8 C 88 % 1017,5 hPa 0,0 l/m 0 min 0 min 254 W/m 9,7 km/h (2 Bft) 97,87 %
01.08.2022 10:02 20,9 C 21,1 C 17,8 C 88 % 1017,5 hPa 0,0 l/m 2 min 0 min 285 W/m 6,4 km/h (2 Bft) 97,37 %
01.08.2022 10:04 20,9 C 21,1 C 17,8 C 88 % 1017,5 hPa 0,0 l/m 2 min 0 min 375 W/m 3,2 km/h (1 Bft) 97,87 %
01.08.2022 10:06 21,0 C 21,1 C 17,8 C 88 % 1017,6 hPa 0,0 l/m 0 min 0 min 276 W/m 12,9 km/h (3 Bft) 98,08 %
01.08.2022 10:08 21,0 C 21,1 C 17,8 C 88 % 1017,5 hPa 0,0 l/m 0 min 0 min 257 W/m 6,4 km/h (2 Bft) 97,87 %
01.08.2022 10:10 21,1 C 21,1 C 17,8 C 87 % 1017,5 hPa 0,0 l/m 0 min 0 min 268 W/m 9,7 km/h (2 Bft) 97,87 %
01.08.2022 10:12 21,1 C 21,7 C 17,8 C 87 % 1017,6 hPa 0,0 l/m 2 min 0 min 307 W/m 12,9 km/h (3 Bft) 97,87 %
01.08.2022 10:14 21,1 C 21,7 C 17,8 C 87 % 1017,5 hPa 0,0 l/m 2 min 0 min 333 W/m 9,7 km/h (2 Bft) 95,74 %
01.08.2022 10:16 21,1 C 22,2 C 17,8 C 87 % 1017,5 hPa 0,0 l/m 2 min 0 min 401 W/m 6,4 km/h (2 Bft) 100,00 %
01.08.2022 10:18 21,2 C 22,8 C 18,3 C 87 % 1017,5 hPa 0,0 l/m 2 min 0 min 463 W/m 12,9 km/h (3 Bft) 96,36 %
01.08.2022 10:20 21,3 C 22,8 C 18,3 C 87 % 1017,5 hPa 0,0 l/m 2 min 0 min 348 W/m 6,4 km/h (2 Bft) 97,37 %
01.08.2022 10:22 21,3 C 22,8 C 18,3 C 86 % 1017,6 hPa 0,0 l/m 2 min 0 min 355 W/m 6,4 km/h (2 Bft) 93,62 %
01.08.2022 10:24 21,4 C 22,8 C 18,3 C 85 % 1017,6 hPa 0,0 l/m 2 min 0 min 377 W/m 12,9 km/h (3 Bft) 97,87 %
01.08.2022 10:26 21,4 C 22,2 C 18,3 C 85 % 1017,6 hPa 0,0 l/m 2 min 0 min 370 W/m 12,9 km/h (3 Bft) 97,87 %
01.08.2022 10:28 21,4 C 22,2 C 18,3 C 85 % 1017,6 hPa 0,0 l/m 2 min 0 min 322 W/m 9,7 km/h (2 Bft) 97,87 %
01.08.2022 10:30 21,4 C 22,2 C 18,3 C 84 % 1017,6 hPa 0,0 l/m 2 min 0 min 315 W/m 12,9 km/h (3 Bft) 97,83 %
01.08.2022 10:32 21,4 C 22,2 C 18,3 C 84 % 1017,7 hPa 0,0 l/m 2 min 0 min 359 W/m 12,9 km/h (3 Bft) 100,00 %
01.08.2022 10:34 21,4 C 22,2 C 18,3 C 84 % 1017,7 hPa 0,0 l/m 2 min 0 min 359 W/m 6,4 km/h (2 Bft) 100,00 %
01.08.2022 10:36 21,5 C 22,2 C 18,3 C 84 % 1017,7 hPa 0,0 l/m 2 min 0 min 361 W/m 9,7 km/h (2 Bft) 100,00 %
01.08.2022 10:38 21,6 C 22,2 C 18,3 C 83 % 1017,7 hPa 0,0 l/m 2 min 0 min 396 W/m 12,9 km/h (3 Bft) 100,00 %
01.08.2022 10:40 21,6 C 22,8 C 18,3 C 83 % 1017,7 hPa 0,0 l/m 2 min 0 min 594 W/m 9,7 km/h (2 Bft) 100,00 %
01.08.2022 10:42 21,7 C 22,8 C 18,3 C 84 % 1017,7 hPa 0,0 l/m 2 min 0 min 670 W/m 9,7 km/h (2 Bft) 97,83 %
01.08.2022 10:44 21,8 C 22,8 C 18,9 C 84 % 1017,7 hPa 0,0 l/m 2 min 0 min 337 W/m 12,9 km/h (3 Bft) 100,00 %
01.08.2022 10:46 21,8 C 22,8 C 18,9 C 83 % 1017,7 hPa 0,0 l/m 2 min 0 min 664 W/m 12,9 km/h (3 Bft) 100,00 %
01.08.2022 10:48 21,9 C 22,8 C 18,9 C 83 % 1017,7 hPa 0,0 l/m 2 min 0 min 700 W/m 16,1 km/h (3 Bft) 100,00 %
01.08.2022 10:50 21,9 C 22,8 C 18,9 C 83 % 1017,7 hPa 0,0 l/m 2 min 0 min 499 W/m 9,7 km/h (2 Bft) 100,00 %
01.08.2022 10:52 21,9 C 22,8 C 18,9 C 83 % 1017,7 hPa 0,0 l/m 2 min 0 min 390 W/m 9,7 km/h (2 Bft) 97,87 %
01.08.2022 10:54 22,1 C 22,8 C 19,4 C 83 % 1017,7 hPa 0,0 l/m 2 min 0 min 390 W/m 9,7 km/h (2 Bft) 97,83 %
01.08.2022 10:56 22,1 C 23,3 C 19,4 C 83 % 1017,7 hPa 0,0 l/m 2 min 0 min 439 W/m 12,9 km/h (3 Bft) 95,74 %
01.08.2022 10:58 22,2 C 23,3 C 19,4 C 83 % 1017,7 hPa 0,0 l/m 2 min 0 min 400 W/m 9,7 km/h (2 Bft) 95,74 %
01.08.2022 11:00 22,3 C 23,3 C 19,4 C 83 % 1017,7 hPa 0,0 l/m 2 min 0 min 376 W/m 9,7 km/h (2 Bft) 95,74 %
01.08.2022 11:02 22,3 C 23,3 C 19,4 C 82 % 1017,7 hPa 0,0 l/m 2 min 0 min 517 W/m 9,7 km/h (2 Bft) 95,74 %
01.08.2022 11:04 22,4 C 23,3 C 19,4 C 82 % 1017,7 hPa 0,0 l/m 2 min 0 min 387 W/m 12,9 km/h (3 Bft) 95,74 %
01.08.2022 11:06 22,4 C 23,3 C 19,4 C 81 % 1017,7 hPa 0,0 l/m 2 min 0 min 388 W/m 9,7 km/h (2 Bft) 96,15 %
01.08.2022 11:08 22,4 C 22,8 C 19,4 C 82 % 1017,7 hPa 0,0 l/m 0 min 0 min 332 W/m 16,1 km/h (3 Bft) 96,00 %
01.08.2022 11:10 22,4 C 22,8 C 18,9 C 82 % 1017,7 hPa 0,0 l/m 2 min 0 min 357 W/m 12,9 km/h (3 Bft) 94,74 %
01.08.2022 11:12 22,4 C 22,8 C 18,9 C 82 % 1017,7 hPa 0,0 l/m 2 min 0 min 366 W/m 6,4 km/h (2 Bft) 95,74 %
01.08.2022 11:14 22,4 C 23,3 C 18,9 C 82 % 1017,8 hPa 0,0 l/m 2 min 0 min 352 W/m 12,9 km/h (3 Bft) 91,49 %
01.08.2022 11:16 22,4 C 22,8 C 18,9 C 81 % 1017,9 hPa 0,0 l/m 0 min 0 min 318 W/m 16,1 km/h (3 Bft) 95,74 %
01.08.2022 11:18 22,4 C 22,8 C 18,9 C 81 % 1017,8 hPa 0,0 l/m 0 min 0 min 318 W/m 12,9 km/h (3 Bft) 95,65 %
01.08.2022 11:20 22,4 C 22,8 C 18,3 C 81 % 1017,8 hPa 0,0 l/m 0 min 0 min 307 W/m 9,7 km/h (2 Bft) 95,74 %
01.08.2022 11:22 22,3 C 22,2 C 18,3 C 81 % 1017,9 hPa 0,0 l/m 0 min 0 min 268 W/m 9,7 km/h (2 Bft) 95,74 %
01.08.2022 11:24 22,2 C 22,2 C 18,3 C 81 % 1018,0 hPa 0,0 l/m 0 min 0 min 287 W/m 12,9 km/h (3 Bft) 95,74 %
01.08.2022 11:26 22,2 C 22,2 C 18,3 C 80 % 1018,0 hPa 0,0 l/m 0 min 0 min 283 W/m 9,7 km/h (2 Bft) 96,36 %
01.08.2022 11:28 22,2 C 22,8 C 18,9 C 80 % 1018,0 hPa 0,0 l/m 2 min 0 min 462 W/m 6,4 km/h (2 Bft) 93,62 %
01.08.2022 11:30 22,2 C 23,3 C 18,9 C 81 % 1018,0 hPa 0,0 l/m 2 min 0 min 821 W/m 6,4 km/h (2 Bft) 95,74 %
01.08.2022 11:32 22,3 C 23,9 C 18,9 C 81 % 1018,0 hPa 0,0 l/m 2 min 0 min 822 W/m 9,7 km/h (2 Bft) 95,74 %
01.08.2022 11:34 22,4 C 24,4 C 18,9 C 80 % 1018,0 hPa 0,0 l/m 2 min 0 min 838 W/m 6,4 km/h (2 Bft) 97,37 %
01.08.2022 11:36 22,6 C 25,0 C 19,4 C 80 % 1017,9 hPa 0,0 l/m 2 min 0 min 859 W/m 9,7 km/h (2 Bft) 98,31 %
01.08.2022 11:38 22,7 C 25,6 C 19,4 C 80 % 1017,9 hPa 0,0 l/m 2 min 0 min 867 W/m 12,9 km/h (3 Bft) 97,14 %
01.08.2022 11:40 22,8 C 25,6 C 19,4 C 79 % 1018,0 hPa 0,0 l/m 2 min 0 min 847 W/m 6,4 km/h (2 Bft) 97,87 %
01.08.2022 11:42 23,0 C 25,0 C 19,4 C 79 % 1018,0 hPa 0,0 l/m 2 min 0 min 535 W/m 9,7 km/h (2 Bft) 97,83 %
01.08.2022 11:44 23,1 C 24,4 C 19,4 C 79 % 1018,0 hPa 0,0 l/m 0 min 0 min 244 W/m 12,9 km/h (3 Bft) 100,00 %
01.08.2022 11:46 23,1 C 23,9 C 19,4 C 78 % 1018,0 hPa 0,0 l/m 0 min 0 min 202 W/m 12,9 km/h (3 Bft) 100,00 %
01.08.2022 11:48 23,1 C 23,3 C 19,4 C 78 % 1018,0 hPa 0,0 l/m 0 min 0 min 158 W/m 12,9 km/h (3 Bft) 100,00 %
01.08.2022 11:50 23,0 C 23,3 C 18,9 C 78 % 1017,9 hPa 0,0 l/m 0 min 0 min 176 W/m 6,4 km/h (2 Bft) 98,18 %
01.08.2022 11:52 23,0 C 24,4 C 19,4 C 78 % 1017,9 hPa 0,0 l/m 2 min 0 min 453 W/m 9,7 km/h (2 Bft) 100,00 %
01.08.2022 11:54 23,1 C 25,0 C 19,4 C 78 % 1017,9 hPa 0,0 l/m 2 min 0 min 909 W/m 19,3 km/h (3 Bft) 97,87 %
01.08.2022 11:56 23,2 C 25,0 C 20,0 C 78 % 1017,9 hPa 0,0 l/m 2 min 0 min 933 W/m 6,4 km/h (2 Bft) 100,00 %
01.08.2022 11:58 23,3 C 25,0 C 20,0 C 78 % 1017,9 hPa 0,0 l/m 2 min 0 min 933 W/m 9,7 km/h (2 Bft) 100,00 %
01.08.2022 12:00 23,2 C 24,4 C 19,4 C 77 % 1017,9 hPa 0,0 l/m 0 min 0 min 219 W/m 9,7 km/h (2 Bft) 100,00 %
01.08.2022 12:02 23,2 C 24,4 C 19,4 C 77 % 1017,9 hPa 0,0 l/m 0 min 0 min 221 W/m 9,7 km/h (2 Bft) 100,00 %
01.08.2022 12:04 23,2 C 23,9 C 19,4 C 76 % 1017,9 hPa 0,0 l/m 0 min 0 min 202 W/m 6,4 km/h (2 Bft) 100,00 %
01.08.2022 12:07 23,1 C 23,3 C 18,9 C 77 % 1018,0 hPa 0,0 l/m 0 min 0 min 199 W/m 12,9 km/h (3 Bft) 100,00 %
01.08.2022 12:08 23,1 C 23,3 C 18,9 C 77 % 1018,0 hPa 0,0 l/m 0 min 0 min 194 W/m 19,3 km/h (3 Bft) 100,00 %
01.08.2022 12:10 23,0 C 22,8 C 18,9 C 75 % 1017,9 hPa 0,0 l/m 0 min 0 min 255 W/m 9,7 km/h (2 Bft) 100,00 %
01.08.2022 12:12 22,9 C 23,3 C 20,0 C 74 % 1017,9 hPa 0,0 l/m 2 min 0 min 637 W/m 6,4 km/h (2 Bft) 100,00 %
01.08.2022 12:14 22,9 C 23,9 C 21,1 C 75 % 1017,9 hPa 0,0 l/m 2 min 0 min 921 W/m 3,2 km/h (1 Bft) 100,00 %
01.08.2022 12:16 23,0 C 25,0 C 22,8 C 76 % 1017,9 hPa 0,0 l/m 2 min 0 min 989 W/m 9,7 km/h (2 Bft) 100,00 %
01.08.2022 12:18 23,2 C 25,6 C 23,9 C 76 % 1017,8 hPa 0,0 l/m 2 min 0 min 974 W/m 12,9 km/h (3 Bft) 100,00 %
01.08.2022 12:20 23,3 C 25,6 C 24,4 C 75 % 1017,8 hPa 0,0 l/m 2 min 0 min 1096 W/m 6,4 km/h (2 Bft) 100,00 %
01.08.2022 12:22 23,5 C 25,6 C 24,4 C 75 % 1017,8 hPa 0,0 l/m 2 min 0 min 1102 W/m 9,7 km/h (2 Bft) 97,87 %
01.08.2022 12:24 23,6 C 25,6 C 23,3 C 74 % 1017,9 hPa 0,0 l/m 0 min 0 min 318 W/m 22,5 km/h (4 Bft) 100,00 %
01.08.2022 12:26 23,6 C 24,4 C 21,7 C 73 % 1017,8 hPa 0,0 l/m 0 min 0 min 318 W/m 16,1 km/h (3 Bft) 97,87 %
01.08.2022 12:28 23,6 C 23,9 C 21,1 C 73 % 1017,8 hPa 0,0 l/m 0 min 0 min 315 W/m 12,9 km/h (3 Bft) 97,87 %
01.08.2022 12:30 23,5 C 23,9 C 20,6 C 73 % 1017,8 hPa 0,0 l/m 0 min 0 min 316 W/m 19,3 km/h (3 Bft) 100,00 %
01.08.2022 12:32 23,5 C 23,9 C 20,6 C 74 % 1017,9 hPa 0,0 l/m 0 min 0 min 315 W/m 16,1 km/h (3 Bft) 95,74 %
01.08.2022 12:34 23,5 C 23,9 C 20,0 C 74 % 1017,9 hPa 0,0 l/m 0 min 0 min 345 W/m 16,1 km/h (3 Bft) 100,00 %
01.08.2022 12:36 23,6 C 24,4 C 21,7 C 74 % 1017,9 hPa 0,0 l/m 2 min 0 min 475 W/m 19,3 km/h (3 Bft) 100,00 %
01.08.2022 12:38 23,7 C 24,4 C 21,7 C 74 % 1017,9 hPa 0,0 l/m 2 min 0 min 720 W/m 9,7 km/h (2 Bft) 100,00 %
01.08.2022 12:40 23,6 C 24,4 C 21,1 C 73 % 1017,9 hPa 0,0 l/m 0 min 0 min 226 W/m 9,7 km/h (2 Bft) 100,00 %
01.08.2022 12:42 23,6 C 23,9 C 21,1 C 73 % 1017,9 hPa 0,0 l/m 0 min 0 min 209 W/m 9,7 km/h (2 Bft) 100,00 %
01.08.2022 12:44 23,6 C 23,9 C 20,6 C 72 % 1018,0 hPa 0,0 l/m 0 min 0 min 169 W/m 9,7 km/h (2 Bft) 97,87 %
01.08.2022 12:46 23,6 C 23,3 C 20,0 C 72 % 1018,0 hPa 0,0 l/m 0 min 0 min 189 W/m 12,9 km/h (3 Bft) 97,87 %
01.08.2022 12:48 23,6 C 23,3 C 20,6 C 72 % 1018,0 hPa 0,0 l/m 0 min 0 min 307 W/m 3,2 km/h (1 Bft) 100,00 %
01.08.2022 12:50 23,6 C 23,9 C 20,6 C 73 % 1017,9 hPa 0,0 l/m 2 min 0 min 612 W/m 6,4 km/h (2 Bft) 100,00 %
01.08.2022 12:52 23,6 C 25,0 C 21,1 C 73 % 1017,9 hPa 0,0 l/m 2 min 0 min 634 W/m 9,7 km/h (2 Bft) 95,74 %
01.08.2022 12:54 23,7 C 26,1 C 21,7 C 74 % 1017,9 hPa 0,0 l/m 2 min 0 min 962 W/m 6,4 km/h (2 Bft) 97,87 %
01.08.2022 12:56 23,9 C 26,7 C 21,7 C 73 % 1017,9 hPa 0,0 l/m 2 min 0 min 1022 W/m 6,4 km/h (2 Bft) 100,00 %
01.08.2022 12:58 24,1 C 26,7 C 21,7 C 71 % 1017,9 hPa 0,0 l/m 2 min 0 min 995 W/m 16,1 km/h (3 Bft) 95,74 %
01.08.2022 13:00 24,2 C 26,1 C 21,1 C 70 % 1017,8 hPa 0,0 l/m 2 min 0 min 832 W/m 12,9 km/h (3 Bft) 97,83 %
01.08.2022 13:02 24,3 C 26,1 C 21,1 C 70 % 1017,8 hPa 0,0 l/m 2 min 0 min 547 W/m 16,1 km/h (3 Bft) 97,87 %
01.08.2022 13:04 24,4 C 26,1 C 21,1 C 68 % 1017,8 hPa 0,0 l/m 2 min 0 min 956 W/m 16,1 km/h (3 Bft) 97,87 %
01.08.2022 13:06 24,5 C 26,1 C 21,1 C 68 % 1017,7 hPa 0,0 l/m 2 min 0 min 843 W/m 12,9 km/h (3 Bft) 95,74 %
01.08.2022 13:08 24,6 C 26,1 C 20,6 C 67 % 1017,7 hPa 0,0 l/m 2 min 0 min 801 W/m 19,3 km/h (3 Bft) 95,74 %
01.08.2022 13:10 24,7 C 26,7 C 21,1 C 67 % 1017,7 hPa 0,0 l/m 2 min 0 min 810 W/m 6,4 km/h (2 Bft) 95,74 %
01.08.2022 13:12 24,7 C 26,1 C 21,1 C 66 % 1017,7 hPa 0,0 l/m 2 min 0 min 723 W/m 6,4 km/h (2 Bft) 95,65 %
01.08.2022 13:14 24,7 C 26,1 C 21,1 C 66 % 1017,8 hPa 0,0 l/m 2 min 0 min 438 W/m 12,9 km/h (3 Bft) 97,87 %
01.08.2022 13:16 24,7 C 25,6 C 21,1 C 66 % 1017,8 hPa 0,0 l/m 2 min 0 min 470 W/m 9,7 km/h (2 Bft) 95,74 %
01.08.2022 13:18 24,7 C 25,0 C 21,1 C 65 % 1017,7 hPa 0,0 l/m 2 min 0 min 463 W/m 6,4 km/h (2 Bft) 95,74 %
01.08.2022 13:20 24,7 C 25,6 C 21,1 C 66 % 1017,8 hPa 0,0 l/m 2 min 0 min 469 W/m 6,4 km/h (2 Bft) 95,74 %
01.08.2022 13:22 24,7 C 25,6 C 21,1 C 66 % 1017,7 hPa 0,0 l/m 2 min 0 min 442 W/m 12,9 km/h (3 Bft) 91,49 %
01.08.2022 13:24 24,8 C 25,6 C 21,1 C 67 % 1017,7 hPa 0,0 l/m 2 min 0 min 461 W/m 16,1 km/h (3 Bft) 93,48 %
01.08.2022 13:26 24,8 C 25,6 C 21,1 C 66 % 1017,7 hPa 0,0 l/m 0 min 0 min 358 W/m 12,9 km/h (3 Bft) 93,62 %
01.08.2022 13:28 24,8 C 25,6 C 21,1 C 65 % 1017,6 hPa 0,0 l/m 0 min 0 min 277 W/m 9,7 km/h (2 Bft) 89,36 %
01.08.2022 13:30 24,8 C 25,0 C 20,6 C 64 % 1017,7 hPa 0,0 l/m 0 min 0 min 209 W/m 19,3 km/h (3 Bft) 91,49 %
01.08.2022 13:32 24,7 C 24,4 C 20,6 C 65 % 1017,6 hPa 0,0 l/m 0 min 0 min 210 W/m 6,4 km/h (2 Bft) 93,62 %
01.08.2022 13:34 24,6 C 24,4 C 20,6 C 65 % 1017,7 hPa 0,0 l/m 0 min 0 min 234 W/m 19,3 km/h (3 Bft) 93,48 %
01.08.2022 13:36 24,5 C 24,4 C 20,6 C 66 % 1017,6 hPa 0,0 l/m 0 min 0 min 284 W/m 12,9 km/h (3 Bft) 93,62 %
01.08.2022 13:38 24,5 C 25,6 C 20,6 C 67 % 1017,7 hPa 0,0 l/m 2 min 0 min 548 W/m 12,9 km/h (3 Bft) 92,68 %
01.08.2022 13:40 24,6 C 26,1 C 20,6 C 66 % 1017,7 hPa 0,0 l/m 2 min 0 min 889 W/m 12,9 km/h (3 Bft) 95,74 %
01.08.2022 13:42 24,6 C 26,1 C 21,1 C 66 % 1017,7 hPa 0,0 l/m 2 min 0 min 858 W/m 12,9 km/h (3 Bft) 97,87 %
01.08.2022 13:44 24,7 C 26,1 C 21,1 C 65 % 1017,7 hPa 0,0 l/m 2 min 0 min 832 W/m 12,9 km/h (3 Bft) 95,74 %
01.08.2022 13:46 24,7 C 26,1 C 21,1 C 66 % 1017,7 hPa 0,0 l/m 2 min 0 min 777 W/m 9,7 km/h (2 Bft) 94,23 %
01.08.2022 13:48 24,7 C 26,1 C 21,1 C 65 % 1017,6 hPa 0,0 l/m 2 min 0 min 693 W/m 16,1 km/h (3 Bft) 95,74 %
01.08.2022 13:50 24,8 C 26,7 C 21,1 C 65 % 1017,6 hPa 0,0 l/m 2 min 0 min 751 W/m 16,1 km/h (3 Bft) 95,74 %
01.08.2022 13:52 24,8 C 26,7 C 21,7 C 65 % 1017,7 hPa 0,0 l/m 2 min 0 min 870 W/m 12,9 km/h (3 Bft) 95,74 %
01.08.2022 13:54 25,0 C 27,2 C 21,7 C 65 % 1017,7 hPa 0,0 l/m 2 min 0 min 905 W/m 19,3 km/h (3 Bft) 95,74 %
01.08.2022 13:56 25,1 C 27,8 C 21,7 C 65 % 1017,7 hPa 0,0 l/m 2 min 0 min 983 W/m 16,1 km/h (3 Bft) 95,74 %
01.08.2022 13:58 25,2 C 27,8 C 21,7 C 64 % 1017,7 hPa 0,0 l/m 2 min 0 min 991 W/m 9,7 km/h (2 Bft) 97,67 %
01.08.2022 14:00 25,3 C 27,2 C 21,7 C 64 % 1017,7 hPa 0,0 l/m 2 min 0 min 991 W/m 16,1 km/h (3 Bft) 97,87 %
01.08.2022 14:02 25,3 C 26,7 C 21,7 C 63 % 1017,7 hPa 0,0 l/m 0 min 0 min 401 W/m 9,7 km/h (2 Bft) 95,74 %
01.08.2022 14:04 25,4 C 27,2 C 21,7 C 64 % 1017,6 hPa 0,0 l/m 2 min 0 min 894 W/m 22,5 km/h (4 Bft) 95,74 %
01.08.2022 14:06 25,5 C 27,2 C 21,7 C 65 % 1017,7 hPa 0,0 l/m 2 min 0 min 877 W/m 22,5 km/h (4 Bft) 97,87 %
01.08.2022 14:08 25,6 C 27,2 C 21,7 C 66 % 1017,7 hPa 0,0 l/m 2 min 0 min 787 W/m 9,7 km/h (2 Bft) 100,00 %
01.08.2022 14:10 25,6 C 26,7 C 21,7 C 65 % 1017,7 hPa 0,0 l/m 0 min 0 min 278 W/m 16,1 km/h (3 Bft) 100,00 %
01.08.2022 14:12 25,6 C 26,1 C 21,1 C 66 % 1017,8 hPa 0,0 l/m 0 min 0 min 274 W/m 16,1 km/h (3 Bft) 97,87 %
01.08.2022 14:14 25,4 C 25,6 C 21,1 C 66 % 1017,8 hPa 0,0 l/m 0 min 0 min 291 W/m 12,9 km/h (3 Bft) 96,15 %
01.08.2022 14:16 25,3 C 25,6 C 21,1 C 67 % 1017,8 hPa 0,0 l/m 0 min 0 min 343 W/m 16,1 km/h (3 Bft) 97,56 %
01.08.2022 14:18 25,3 C 26,1 C 21,1 C 67 % 1017,8 hPa 0,0 l/m 2 min 0 min 690 W/m 6,4 km/h (2 Bft) 100,00 %
01.08.2022 14:20 25,2 C 26,1 C 21,1 C 68 % 1017,8 hPa 0,0 l/m 2 min 0 min 562 W/m 6,4 km/h (2 Bft) 97,87 %
01.08.2022 14:22 25,2 C 26,1 C 21,1 C 68 % 1017,8 hPa 0,0 l/m 0 min 0 min 349 W/m 25,7 km/h (4 Bft) 100,00 %
01.08.2022 14:24 25,2 C 26,1 C 21,1 C 69 % 1017,8 hPa 0,0 l/m 2 min 0 min 538 W/m 19,3 km/h (3 Bft) 100,00 %
01.08.2022 14:26 25,1 C 26,1 C 21,1 C 68 % 1017,8 hPa 0,0 l/m 2 min 0 min 857 W/m 12,9 km/h (3 Bft) 100,00 %
01.08.2022 14:28 25,1 C 26,7 C 21,1 C 69 % 1017,8 hPa 0,0 l/m 2 min 0 min 847 W/m 12,9 km/h (3 Bft) 100,00 %
01.08.2022 14:30 25,1 C 26,7 C 21,1 C 69 % 1017,7 hPa 0,0 l/m 2 min 0 min 847 W/m 16,1 km/h (3 Bft) 100,00 %
01.08.2022 14:32 25,0 C 26,1 C 21,1 C 69 % 1017,7 hPa 0,0 l/m 2 min 0 min 490 W/m 25,7 km/h (4 Bft) 100,00 %
01.08.2022 14:34 25,0 C 27,2 C 21,1 C 69 % 1017,7 hPa 0,0 l/m 2 min 0 min 810 W/m 12,9 km/h (3 Bft) 100,00 %
01.08.2022 14:36 25,1 C 27,8 C 21,1 C 69 % 1017,8 hPa 0,0 l/m 2 min 0 min 974 W/m 12,9 km/h (3 Bft) 100,00 %
01.08.2022 14:38 25,2 C 27,8 C 21,1 C 70 % 1017,7 hPa 0,0 l/m 2 min 0 min 857 W/m 12,9 km/h (3 Bft) 100,00 %
01.08.2022 14:40 25,2 C 27,8 C 21,1 C 69 % 1017,8 hPa 0,0 l/m 2 min 0 min 769 W/m 16,1 km/h (3 Bft) 100,00 %
01.08.2022 14:42 25,2 C 27,8 C 21,1 C 68 % 1017,8 hPa 0,0 l/m 2 min 0 min 857 W/m 16,1 km/h (3 Bft) 100,00 %
01.08.2022 14:44 25,2 C 27,8 C 21,1 C 67 % 1017,8 hPa 0,0 l/m 2 min 0 min 826 W/m 16,1 km/h (3 Bft) 100,00 %
01.08.2022 14:46 25,2 C 26,7 C 21,1 C 67 % 1017,8 hPa 0,0 l/m 2 min 0 min 840 W/m 16,1 km/h (3 Bft) 100,00 %
01.08.2022 14:48 25,2 C 26,7 C 21,1 C 68 % 1017,8 hPa 0,0 l/m 2 min 0 min 840 W/m 12,9 km/h (3 Bft) 100,00 %
01.08.2022 14:50 25,1 C 27,2 C 21,1 C 67 % 1017,8 hPa 0,0 l/m 2 min 0 min 840 W/m 12,9 km/h (3 Bft) 97,87 %
01.08.2022 14:52 25,2 C 27,2 C 21,1 C 66 % 1017,8 hPa 0,0 l/m 2 min 0 min 883 W/m 9,7 km/h (2 Bft) 100,00 %
01.08.2022 14:54 25,2 C 28,3 C 21,1 C 67 % 1017,8 hPa 0,0 l/m 2 min 0 min 971 W/m 9,7 km/h (2 Bft) 100,00 %
01.08.2022 14:56 25,4 C 27,8 C 21,1 C 66 % 1017,7 hPa 0,0 l/m 2 min 0 min 956 W/m 9,7 km/h (2 Bft) 100,00 %
01.08.2022 14:58 25,6 C 28,3 C 21,7 C 66 % 1017,7 hPa 0,0 l/m 2 min 0 min 828 W/m 19,3 km/h (3 Bft) 97,87 %
01.08.2022 15:00 25,6 C 28,3 C 21,7 C 64 % 1017,7 hPa 0,0 l/m 2 min 0 min 786 W/m 22,5 km/h (4 Bft) 95,65 %
01.08.2022 15:02 25,7 C 28,3 C 21,7 C 64 % 1017,7 hPa 0,0 l/m 2 min 0 min 861 W/m 16,1 km/h (3 Bft) 97,87 %
01.08.2022 15:04 25,7 C 27,8 C 21,7 C 63 % 1017,7 hPa 0,0 l/m 2 min 0 min 867 W/m 12,9 km/h (3 Bft) 95,74 %
01.08.2022 15:06 25,8 C 27,8 C 21,7 C 64 % 1017,7 hPa 0,0 l/m 2 min 0 min 872 W/m 19,3 km/h (3 Bft) 53,66 %
01.08.2022 15:08 25,8 C 27,8 C 21,7 C 63 % 1017,7 hPa 0,0 l/m 2 min 0 min 766 W/m 16,1 km/h (3 Bft) 97,14 %
01.08.2022 15:10 25,8 C 27,2 C 21,7 C 63 % 1017,7 hPa 0,0 l/m 2 min 0 min 686 W/m 16,1 km/h (3 Bft) 95,74 %
01.08.2022 15:12 25,9 C 27,8 C 21,7 C 66 % 1017,7 hPa 0,0 l/m 2 min 0 min 664 W/m 6,4 km/h (2 Bft) 97,83 %
01.08.2022 15:14 26,0 C 27,8 C 21,7 C 66 % 1017,7 hPa 0,0 l/m 2 min 0 min 479 W/m 16,1 km/h (3 Bft) 98,21 %
01.08.2022 15:16 26,0 C 26,7 C 21,7 C 65 % 1017,7 hPa 0,0 l/m 0 min 0 min 334 W/m 19,3 km/h (3 Bft) 97,87 %
01.08.2022 15:18 25,9 C 26,1 C 21,1 C 64 % 1017,7 hPa 0,0 l/m 2 min 0 min 385 W/m 22,5 km/h (4 Bft) 97,87 %
01.08.2022 15:20 25,8 C 26,1 C 21,1 C 64 % 1017,7 hPa 0,0 l/m 2 min 0 min 420 W/m 16,1 km/h (3 Bft) 97,87 %
01.08.2022 15:22 25,7 C 26,1 C 21,1 C 65 % 1017,7 hPa 0,0 l/m 2 min 0 min 399 W/m 6,4 km/h (2 Bft) 97,83 %
01.08.2022 15:24 25,6 C 26,1 C 21,1 C 66 % 1017,8 hPa 0,0 l/m 0 min 0 min 342 W/m 6,4 km/h (2 Bft) 97,87 %
01.08.2022 15:26 25,5 C 25,6 C 21,1 C 66 % 1017,8 hPa 0,0 l/m 0 min 0 min 369 W/m 6,4 km/h (2 Bft) 97,87 %
01.08.2022 15:28 25,4 C 25,6 C 21,1 C 66 % 1017,7 hPa 0,0 l/m 0 min 0 min 347 W/m 16,1 km/h (3 Bft) 95,74 %
01.08.2022 15:30 25,4 C 25,6 C 21,1 C 66 % 1017,8 hPa 0,0 l/m 0 min 0 min 361 W/m 22,5 km/h (4 Bft) 97,87 %
01.08.2022 15:32 25,4 C 25,6 C 21,1 C 68 % 1017,8 hPa 0,0 l/m 2 min 0 min 415 W/m 16,1 km/h (3 Bft) 97,87 %
01.08.2022 15:34 25,2 C 25,6 C 21,1 C 68 % 1017,8 hPa 0,0 l/m 0 min 0 min 363 W/m 25,7 km/h (4 Bft) 97,83 %
01.08.2022 15:36 25,2 C 25,0 C 20,6 C 68 % 1017,9 hPa 0,0 l/m 2 min 0 min 450 W/m 25,7 km/h (4 Bft) 100,00 %
01.08.2022 15:38 25,1 C 25,6 C 20,6 C 69 % 1017,8 hPa 0,0 l/m 2 min 0 min 564 W/m 12,9 km/h (3 Bft) 95,74 %
01.08.2022 15:40 25,1 C 26,1 C 21,1 C 69 % 1017,8 hPa 0,0 l/m 2 min 0 min 539 W/m 12,9 km/h (3 Bft) 100,00 %
01.08.2022 15:42 25,1 C 26,1 C 21,1 C 69 % 1017,8 hPa 0,0 l/m 2 min 0 min 546 W/m 22,5 km/h (4 Bft) 100,00 %
01.08.2022 15:44 25,1 C 26,1 C 21,1 C 70 % 1017,8 hPa 0,0 l/m 2 min 0 min 533 W/m 19,3 km/h (3 Bft) 100,00 %
01.08.2022 15:46 25,1 C 26,1 C 21,1 C 70 % 1017,8 hPa 0,0 l/m 2 min 0 min 529 W/m 16,1 km/h (3 Bft) 100,00 %
01.08.2022 15:48 25,1 C 25,6 C 21,1 C 70 % 1017,9 hPa 0,0 l/m 2 min 0 min 369 W/m 16,1 km/h (3 Bft) 100,00 %
01.08.2022 15:50 24,8 C 25,0 C 20,6 C 70 % 1017,9 hPa 0,0 l/m 0 min 0 min 324 W/m 12,9 km/h (3 Bft) 100,00 %
01.08.2022 15:52 24,7 C 25,0 C 20,6 C 71 % 1018,0 hPa 0,0 l/m 0 min 0 min 289 W/m 9,7 km/h (2 Bft) 100,00 %
01.08.2022 15:54 24,7 C 25,0 C 20,6 C 71 % 1018,0 hPa 0,0 l/m 0 min 0 min 263 W/m 19,3 km/h (3 Bft) 97,87 %
01.08.2022 15:56 24,6 C 24,4 C 20,6 C 71 % 1018,0 hPa 0,0 l/m 0 min 0 min 251 W/m 9,7 km/h (2 Bft) 98,21 %
01.08.2022 15:58 24,4 C 24,4 C 20,6 C 70 % 1018,0 hPa 0,0 l/m 0 min 0 min 258 W/m 16,1 km/h (3 Bft) 95,65 %
01.08.2022 16:00 24,4 C 24,4 C 20,0 C 71 % 1017,9 hPa 0,0 l/m 0 min 0 min 272 W/m 19,3 km/h (3 Bft) 97,87 %
01.08.2022 16:02 24,4 C 25,0 C 20,0 C 71 % 1017,9 hPa 0,0 l/m 0 min 0 min 320 W/m 12,9 km/h (3 Bft) 97,87 %
01.08.2022 16:04 24,3 C 25,0 C 20,0 C 71 % 1017,9 hPa 0,0 l/m 2 min 0 min 358 W/m 16,1 km/h (3 Bft) 97,87 %
01.08.2022 16:06 24,4 C 25,0 C 20,6 C 71 % 1017,9 hPa 0,0 l/m 2 min 0 min 378 W/m 16,1 km/h (3 Bft) 97,87 %
01.08.2022 16:08 24,3 C 25,0 C 20,6 C 71 % 1017,9 hPa 0,0 l/m 2 min 0 min 388 W/m 12,9 km/h (3 Bft) 93,48 %
01.08.2022 16:10 24,3 C 25,0 C 20,6 C 71 % 1017,9 hPa 0,0 l/m 2 min 0 min 402 W/m 19,3 km/h (3 Bft) 98,00 %
01.08.2022 16:12 24,4 C 25,6 C 20,6 C 72 % 1017,9 hPa 0,0 l/m 2 min 0 min 388 W/m 9,7 km/h (2 Bft) 95,74 %
01.08.2022 16:14 24,4 C 25,0 C 20,6 C 71 % 1018,0 hPa 0,0 l/m 2 min 0 min 384 W/m 12,9 km/h (3 Bft) 91,43 %
01.08.2022 16:16 24,3 C 25,0 C 20,6 C 71 % 1017,9 hPa 0,0 l/m 2 min 0 min 392 W/m 19,3 km/h (3 Bft) 96,43 %
01.08.2022 16:18 24,3 C 25,6 C 20,6 C 71 % 1017,9 hPa 0,0 l/m 2 min 0 min 415 W/m 12,9 km/h (3 Bft) 93,62 %
01.08.2022 16:20 24,4 C 25,6 C 20,6 C 71 % 1017,9 hPa 0,0 l/m 2 min 0 min 434 W/m 22,5 km/h (4 Bft) 95,65 %
01.08.2022 16:22 24,4 C 26,1 C 20,6 C 71 % 1017,9 hPa 0,0 l/m 2 min 0 min 460 W/m 12,9 km/h (3 Bft) 95,74 %
01.08.2022 16:24 24,4 C 26,1 C 20,6 C 71 % 1017,9 hPa 0,0 l/m 2 min 0 min 507 W/m 19,3 km/h (3 Bft) 93,62 %
01.08.2022 16:26 24,4 C 26,1 C 20,6 C 71 % 1017,9 hPa 0,0 l/m 2 min 0 min 542 W/m 19,3 km/h (3 Bft) 95,74 %
01.08.2022 16:28 24,5 C 26,7 C 20,6 C 71 % 1017,9 hPa 0,0 l/m 2 min 0 min 567 W/m 9,7 km/h (2 Bft) 95,74 %
01.08.2022 16:30 24,6 C 27,2 C 20,6 C 71 % 1017,9 hPa 0,0 l/m 2 min 0 min 575 W/m 22,5 km/h (4 Bft) 96,00 %
01.08.2022 16:32 24,6 C 27,8 C 20,6 C 71 % 1017,9 hPa 0,0 l/m 2 min 0 min 590 W/m 16,1 km/h (3 Bft) 95,65 %
01.08.2022 16:34 24,7 C 28,3 C 20,6 C 71 % 1017,9 hPa 0,0 l/m 2 min 0 min 604 W/m 12,9 km/h (3 Bft) 95,74 %
01.08.2022 16:36 24,8 C 27,8 C 20,6 C 70 % 1017,9 hPa 0,0 l/m 2 min 0 min 598 W/m 9,7 km/h (2 Bft) 95,74 %
01.08.2022 16:38 24,8 C 27,8 C 21,1 C 70 % 1017,9 hPa 0,0 l/m 2 min 0 min 582 W/m 12,9 km/h (3 Bft) 95,74 %
01.08.2022 16:40 24,8 C 27,8 C 21,1 C 70 % 1017,9 hPa 0,0 l/m 2 min 0 min 575 W/m 19,3 km/h (3 Bft) 97,14 %
01.08.2022 16:42 24,8 C 27,2 C 21,1 C 70 % 1017,9 hPa 0,0 l/m 2 min 0 min 588 W/m 19,3 km/h (3 Bft) 97,87 %
01.08.2022 16:44 24,8 C 27,8 C 21,1 C 70 % 1017,9 hPa 0,0 l/m 2 min 0 min 605 W/m 19,3 km/h (3 Bft) 97,87 %
01.08.2022 16:46 24,9 C 28,3 C 21,1 C 70 % 1017,9 hPa 0,0 l/m 2 min 0 min 634 W/m 16,1 km/h (3 Bft) 95,65 %
01.08.2022 16:48 24,9 C 28,9 C 21,1 C 70 % 1018,0 hPa 0,0 l/m 2 min 0 min 662 W/m 16,1 km/h (3 Bft) 97,87 %
01.08.2022 16:50 25,1 C 28,9 C 21,1 C 69 % 1017,9 hPa 0,0 l/m 2 min 0 min 631 W/m 22,5 km/h (4 Bft) 96,43 %
01.08.2022 16:52 25,1 C 28,3 C 21,1 C 68 % 1017,9 hPa 0,0 l/m 2 min 0 min 603 W/m 22,5 km/h (4 Bft) 97,87 %
01.08.2022 16:54 25,1 C 28,3 C 21,1 C 69 % 1017,9 hPa 0,0 l/m 2 min 0 min 575 W/m 19,3 km/h (3 Bft) 95,74 %
01.08.2022 16:56 25,1 C 28,9 C 21,1 C 69 % 1017,9 hPa 0,0 l/m 2 min 0 min 541 W/m 19,3 km/h (3 Bft) 95,65 %
01.08.2022 16:58 25,1 C 27,8 C 21,1 C 68 % 1017,9 hPa 0,0 l/m 2 min 0 min 505 W/m 12,9 km/h (3 Bft) 97,87 %
01.08.2022 17:00 25,1 C 27,2 C 21,1 C 68 % 1017,9 hPa 0,0 l/m 2 min 0 min 462 W/m 19,3 km/h (3 Bft) 97,87 %
01.08.2022 17:02 25,0 C 27,2 C 21,1 C 68 % 1017,9 hPa 0,0 l/m 2 min 0 min 338 W/m 19,3 km/h (3 Bft) 95,74 %
01.08.2022 17:04 24,9 C 27,2 C 20,6 C 68 % 1017,9 hPa 0,0 l/m 2 min 0 min 452 W/m 12,9 km/h (3 Bft) 96,00 %
01.08.2022 17:06 24,9 C 27,2 C 20,6 C 68 % 1017,9 hPa 0,0 l/m 2 min 0 min 541 W/m 22,5 km/h (4 Bft) 95,65 %
01.08.2022 17:08 24,8 C 27,2 C 21,1 C 68 % 1017,9 hPa 0,0 l/m 2 min 0 min 531 W/m 25,7 km/h (4 Bft) 97,87 %
01.08.2022 17:10 24,8 C 27,2 C 20,6 C 68 % 1017,9 hPa 0,0 l/m 2 min 0 min 483 W/m 19,3 km/h (3 Bft) 97,37 %
01.08.2022 17:12 24,8 C 27,2 C 20,6 C 68 % 1017,9 hPa 0,0 l/m 2 min 0 min 445 W/m 9,7 km/h (2 Bft) 97,87 %
01.08.2022 17:15 24,7 C 26,1 C 20,6 C 68 % 1018,0 hPa 0,0 l/m 3 min 0 min 359 W/m 19,3 km/h (3 Bft) 99,12 %
01.08.2022 17:20 24,6 C 25,6 C 20,6 C 68 % 1018,0 hPa 0,0 l/m 5 min 0 min 340 W/m 22,5 km/h (4 Bft) 92,11 %
01.08.2022 17:25 24,4 C 25,6 C 20,6 C 68 % 1018,0 hPa 0,0 l/m 5 min 0 min 339 W/m 16,1 km/h (3 Bft) 99,12 %
01.08.2022 17:30 24,4 C 26,7 C 20,6 C 69 % 1018,1 hPa 0,0 l/m 5 min 0 min 423 W/m 16,1 km/h (3 Bft) 100,00 %
01.08.2022 17:35 24,5 C 27,8 C 21,1 C 69 % 1018,1 hPa 0,0 l/m 5 min 0 min 493 W/m 19,3 km/h (3 Bft) 100,00 %
01.08.2022 17:40 24,6 C 28,3 C 21,1 C 68 % 1018,2 hPa 0,0 l/m 5 min 0 min 522 W/m 16,1 km/h (3 Bft) 100,00 %
01.08.2022 17:45 24,8 C 27,8 C 21,1 C 68 % 1018,2 hPa 0,0 l/m 5 min 0 min 385 W/m 12,9 km/h (3 Bft) 100,00 %
01.08.2022 17:50 24,8 C 26,1 C 20,6 C 66 % 1018,2 hPa 0,0 l/m 5 min 0 min 294 W/m 16,1 km/h (3 Bft) 100,00 %
01.08.2022 17:55 24,7 C 25,6 C 20,6 C 66 % 1018,2 hPa 0,0 l/m 5 min 0 min 280 W/m 12,9 km/h (3 Bft) 100,00 %
01.08.2022 18:00 24,6 C 26,1 C 20,6 C 68 % 1018,2 hPa 0,0 l/m 5 min 0 min 321 W/m 19,3 km/h (3 Bft) 100,00 %
01.08.2022 18:05 24,4 C 26,7 C 20,6 C 67 % 1018,1 hPa 0,0 l/m 5 min 0 min 395 W/m 12,9 km/h (3 Bft) 100,00 %
01.08.2022 18:10 24,5 C 26,7 C 20,6 C 68 % 1018,2 hPa 0,0 l/m 5 min 0 min 340 W/m 12,9 km/h (3 Bft) 100,00 %
01.08.2022 18:15 24,6 C 27,2 C 21,1 C 69 % 1018,1 hPa 0,0 l/m 5 min 0 min 325 W/m 12,9 km/h (3 Bft) 100,00 %
01.08.2022 18:20 24,6 C 28,3 C 20,6 C 66 % 1018,1 hPa 0,0 l/m 5 min 0 min 469 W/m 16,1 km/h (3 Bft) 100,00 %
01.08.2022 18:25 24,7 C 27,8 C 21,1 C 66 % 1018,1 hPa 0,0 l/m 5 min 0 min 417 W/m 9,7 km/h (2 Bft) 100,00 %
01.08.2022 18:30 24,8 C 30,0 C 21,1 C 67 % 1018,2 hPa 0,0 l/m 5 min 0 min 485 W/m 19,3 km/h (3 Bft) 99,12 %
01.08.2022 18:35 25,0 C 30,6 C 21,7 C 66 % 1018,2 hPa 0,0 l/m 5 min 0 min 532 W/m 22,5 km/h (4 Bft) 99,12 %
01.08.2022 18:40 25,1 C 30,0 C 21,1 C 66 % 1018,2 hPa 0,0 l/m 5 min 0 min 445 W/m 9,7 km/h (2 Bft) 100,00 %
01.08.2022 18:45 24,9 C 27,2 C 20,6 C 65 % 1018,2 hPa 0,0 l/m 0 min 0 min 153 W/m 12,9 km/h (3 Bft) 100,00 %
01.08.2022 18:50 24,9 C 29,4 C 20,6 C 65 % 1018,2 hPa 0,0 l/m 5 min 0 min 419 W/m 16,1 km/h (3 Bft) 100,00 %
01.08.2022 18:55 24,9 C 30,0 C 20,6 C 65 % 1018,1 hPa 0,0 l/m 5 min 0 min 434 W/m 16,1 km/h (3 Bft) 99,12 %
01.08.2022 19:00 24,9 C 30,0 C 20,6 C 64 % 1018,1 hPa 0,0 l/m 5 min 0 min 394 W/m 12,9 km/h (3 Bft) 100,00 %
01.08.2022 19:05 24,8 C 28,9 C 20,0 C 65 % 1018,1 hPa 0,0 l/m 5 min 0 min 345 W/m 19,3 km/h (3 Bft) 100,00 %
01.08.2022 19:10 24,7 C 29,4 C 20,0 C 66 % 1018,1 hPa 0,0 l/m 5 min 0 min 338 W/m 19,3 km/h (3 Bft) 97,37 %
01.08.2022 19:15 24,6 C 26,7 C 20,0 C 65 % 1018,2 hPa 0,0 l/m 5 min 0 min 315 W/m 19,3 km/h (3 Bft) 100,00 %
01.08.2022 19:20 24,4 C 24,4 C 19,4 C 65 % 1018,2 hPa 0,0 l/m 5 min 0 min 204 W/m 16,1 km/h (3 Bft) 99,12 %
01.08.2022 19:25 24,2 C 23,9 C 19,4 C 66 % 1018,2 hPa 0,0 l/m 5 min 0 min 243 W/m 16,1 km/h (3 Bft) 98,25 %
01.08.2022 19:30 23,9 C 23,3 C 19,4 C 66 % 1018,2 hPa 0,0 l/m 5 min 0 min 196 W/m 16,1 km/h (3 Bft) 95,00 %
01.08.2022 19:32 23,9 C 23,3 C 18,9 C 66 % 1018,2 hPa 0,0 l/m 0 min 0 min 115 W/m 9,7 km/h (2 Bft) 93,62 %
01.08.2022 19:34 23,8 C 23,3 C 18,9 C 66 % 1018,2 hPa 0,0 l/m 0 min 0 min 62 W/m 12,9 km/h (3 Bft) 95,65 %
01.08.2022 19:36 23,8 C 23,3 C 18,9 C 67 % 1018,2 hPa 0,0 l/m 0 min 0 min 58 W/m 12,9 km/h (3 Bft) 95,74 %
01.08.2022 19:38 23,7 C 22,8 C 18,9 C 67 % 1018,2 hPa 0,0 l/m 0 min 0 min 61 W/m 9,7 km/h (2 Bft) 95,74 %
01.08.2022 19:40 23,6 C 22,8 C 18,9 C 67 % 1018,3 hPa 0,0 l/m 0 min 0 min 53 W/m 9,7 km/h (2 Bft) 95,74 %
01.08.2022 19:42 23,5 C 22,8 C 18,9 C 67 % 1018,2 hPa 0,0 l/m 0 min 0 min 61 W/m 3,2 km/h (1 Bft) 97,87 %
01.08.2022 19:44 23,5 C 22,8 C 18,9 C 67 % 1018,2 hPa 0,0 l/m 0 min 0 min 52 W/m 12,9 km/h (3 Bft) 97,87 %
01.08.2022 19:46 23,4 C 22,8 C 18,9 C 68 % 1018,2 hPa 0,0 l/m 0 min 0 min 53 W/m 6,4 km/h (2 Bft) 95,65 %
01.08.2022 19:48 23,4 C 22,8 C 18,9 C 68 % 1018,2 hPa 0,0 l/m 0 min 0 min 52 W/m 9,7 km/h (2 Bft) 97,87 %
01.08.2022 19:50 23,3 C 22,8 C 18,9 C 68 % 1018,2 hPa 0,0 l/m 0 min 0 min 47 W/m 6,4 km/h (2 Bft) 97,87 %
01.08.2022 19:52 23,3 C 22,8 C 18,9 C 68 % 1018,2 hPa 0,0 l/m 0 min 0 min 46 W/m 9,7 km/h (2 Bft) 97,87 %
01.08.2022 19:54 23,2 C 22,2 C 18,3 C 68 % 1018,1 hPa 0,0 l/m 0 min 0 min 45 W/m 9,7 km/h (2 Bft) 97,87 %
01.08.2022 19:56 23,2 C 22,2 C 18,3 C 68 % 1018,1 hPa 0,0 l/m 0 min 0 min 38 W/m 9,7 km/h (2 Bft) 97,87 %
01.08.2022 19:58 23,1 C 22,2 C 18,3 C 68 % 1018,1 hPa 0,0 l/m 0 min 0 min 36 W/m 3,2 km/h (1 Bft) 97,83 %
01.08.2022 20:00 23,1 C 22,2 C 18,3 C 68 % 1018,2 hPa 0,0 l/m 0 min 0 min 39 W/m 6,4 km/h (2 Bft) 97,87 %
01.08.2022 20:02 23,0 C 22,2 C 18,3 C 68 % 1018,2 hPa 0,0 l/m 0 min 0 min 40 W/m 12,9 km/h (3 Bft) 95,74 %
01.08.2022 20:04 22,9 C 22,2 C 18,3 C 69 % 1018,3 hPa 0,0 l/m 0 min 0 min 46 W/m 3,2 km/h (1 Bft) 95,74 %
01.08.2022 20:06 22,9 C 22,2 C 18,3 C 69 % 1018,3 hPa 0,0 l/m 0 min 0 min 49 W/m 3,2 km/h (1 Bft) 97,87 %
01.08.2022 20:08 22,9 C 22,2 C 18,3 C 69 % 1018,3 hPa 0,0 l/m 0 min 0 min 49 W/m 9,7 km/h (2 Bft) 97,87 %
01.08.2022 20:10 22,9 C 22,2 C 18,3 C 70 % 1018,3 hPa 0,0 l/m 0 min 0 min 49 W/m 3,2 km/h (1 Bft) 97,83 %
01.08.2022 20:12 22,8 C 22,2 C 18,3 C 69 % 1018,3 hPa 0,0 l/m 0 min 0 min 48 W/m 6,4 km/h (2 Bft) 97,73 %
01.08.2022 20:14 22,8 C 22,2 C 18,3 C 69 % 1018,3 hPa 0,0 l/m 0 min 0 min 44 W/m 9,7 km/h (2 Bft) 97,87 %
01.08.2022 20:16 22,8 C 22,2 C 18,3 C 69 % 1018,2 hPa 0,0 l/m 0 min 0 min 40 W/m 9,7 km/h (2 Bft) 97,87 %
01.08.2022 20:18 22,8 C 22,2 C 18,3 C 69 % 1018,3 hPa 0,0 l/m 0 min 0 min 41 W/m 12,9 km/h (3 Bft) 97,87 %
01.08.2022 20:20 22,7 C 21,7 C 18,3 C 69 % 1018,3 hPa 0,0 l/m 0 min 0 min 43 W/m 6,4 km/h (2 Bft) 97,83 %
01.08.2022 20:22 22,7 C 22,2 C 18,3 C 69 % 1018,3 hPa 0,0 l/m 0 min 0 min 44 W/m 9,7 km/h (2 Bft) 100,00 %
01.08.2022 20:24 22,7 C 22,2 C 18,3 C 69 % 1018,4 hPa 0,0 l/m 0 min 0 min 41 W/m 6,4 km/h (2 Bft) 100,00 %
01.08.2022 20:26 22,7 C 22,2 C 18,3 C 69 % 1018,4 hPa 0,0 l/m 0 min 0 min 39 W/m 9,7 km/h (2 Bft) 100,00 %
01.08.2022 20:28 22,7 C 22,2 C 18,3 C 70 % 1018,5 hPa 0,0 l/m 0 min 0 min 34 W/m 6,4 km/h (2 Bft) 97,87 %
01.08.2022 20:30 22,7 C 22,2 C 18,3 C 70 % 1018,4 hPa 0,0 l/m 0 min 0 min 31 W/m 3,2 km/h (1 Bft) 100,00 %
01.08.2022 20:32 22,8 C 22,2 C 18,3 C 70 % 1018,4 hPa 0,0 l/m 0 min 0 min 29 W/m 3,2 km/h (1 Bft) 100,00 %
01.08.2022 20:34 22,8 C 22,2 C 18,3 C 69 % 1018,5 hPa 0,0 l/m 0 min 0 min 26 W/m 9,7 km/h (2 Bft) 100,00 %
01.08.2022 20:36 22,8 C 21,7 C 17,8 C 69 % 1018,5 hPa 0,0 l/m 0 min 0 min 25 W/m 9,7 km/h (2 Bft) 93,62 %
01.08.2022 20:38 22,8 C 21,7 C 17,8 C 69 % 1018,5 hPa 0,0 l/m 0 min 0 min 24 W/m 6,4 km/h (2 Bft) 100,00 %
01.08.2022 20:40 22,8 C 22,2 C 17,8 C 70 % 1018,5 hPa 0,0 l/m 0 min 0 min 22 W/m 9,7 km/h (2 Bft) 100,00 %
01.08.2022 20:42 22,7 C 21,7 C 17,8 C 69 % 1018,5 hPa 0,0 l/m 0 min 0 min 21 W/m 6,4 km/h (2 Bft) 100,00 %
01.08.2022 20:44 22,7 C 21,7 C 17,8 C 70 % 1018,5 hPa 0,0 l/m 0 min 0 min 19 W/m 6,4 km/h (2 Bft) 100,00 %
01.08.2022 20:46 22,7 C 21,7 C 17,8 C 69 % 1018,5 hPa 0,0 l/m 0 min 0 min 19 W/m 6,4 km/h (2 Bft) 100,00 %
01.08.2022 20:48 22,7 C 21,7 C 17,8 C 70 % 1018,5 hPa 0,0 l/m 0 min 0 min 18 W/m 3,2 km/h (1 Bft) 100,00 %
01.08.2022 20:50 22,7 C 21,7 C 17,8 C 70 % 1018,6 hPa 0,0 l/m 0 min 0 min 16 W/m 3,2 km/h (1 Bft) 97,87 %
01.08.2022 20:52 22,7 C 21,7 C 17,8 C 70 % 1018,5 hPa 0,0 l/m 0 min 0 min 14 W/m 3,2 km/h (1 Bft) 97,87 %
01.08.2022 20:54 22,6 C 21,7 C 17,8 C 70 % 1018,6 hPa 0,0 l/m 0 min 0 min 13 W/m 3,2 km/h (1 Bft) 97,83 %
01.08.2022 20:56 22,6 C 21,7 C 17,8 C 70 % 1018,6 hPa 0,0 l/m 0 min 0 min 12 W/m 6,4 km/h (2 Bft) 100,00 %
01.08.2022 20:58 22,6 C 21,1 C 17,8 C 70 % 1018,6 hPa 0,0 l/m 0 min 0 min 12 W/m 9,7 km/h (2 Bft) 100,00 %
01.08.2022 21:00 22,6 C 21,1 C 17,2 C 70 % 1018,6 hPa 0,0 l/m 0 min 0 min 12 W/m 3,2 km/h (1 Bft) 100,00 %
01.08.2022 21:02 22,5 C 21,1 C 17,2 C 70 % 1018,6 hPa 0,0 l/m 0 min 0 min 11 W/m 6,4 km/h (2 Bft) 97,87 %
01.08.2022 21:04 22,5 C 21,1 C 17,2 C 70 % 1018,7 hPa 0,0 l/m 0 min 0 min 11 W/m 3,2 km/h (1 Bft) 98,00 %
01.08.2022 21:06 22,4 C 21,1 C 17,2 C 70 % 1018,7 hPa 0,0 l/m 0 min 0 min 10 W/m 6,4 km/h (2 Bft) 95,65 %
01.08.2022 21:08 22,4 C 21,1 C 17,2 C 71 % 1018,7 hPa 0,0 l/m 0 min 0 min 9 W/m 3,2 km/h (1 Bft) 95,74 %
01.08.2022 21:10 22,4 C 21,1 C 17,2 C 71 % 1018,6 hPa 0,0 l/m 0 min 0 min 7 W/m 6,4 km/h (2 Bft) 95,74 %
01.08.2022 21:12 22,3 C 20,6 C 17,2 C 71 % 1018,7 hPa 0,0 l/m 0 min 0 min 7 W/m 3,2 km/h (1 Bft) 95,74 %
01.08.2022 21:14 22,3 C 20,6 C 17,2 C 71 % 1018,7 hPa 0,0 l/m 0 min 0 min 5 W/m 6,4 km/h (2 Bft) 95,74 %
01.08.2022 21:16 22,2 C 20,6 C 17,2 C 71 % 1018,8 hPa 0,0 l/m 0 min 0 min 5 W/m 9,7 km/h (2 Bft) 95,74 %
01.08.2022 21:18 22,2 C 20,6 C 17,2 C 71 % 1018,8 hPa 0,0 l/m 0 min 0 min 0 W/m 3,2 km/h (1 Bft) 93,48 %
01.08.2022 21:20 22,1 C 20,6 C 16,7 C 72 % 1018,7 hPa 0,0 l/m 0 min 0 min 0 W/m 3,2 km/h (1 Bft) 93,62 %
01.08.2022 21:22 22,0 C 20,6 C 16,7 C 72 % 1018,7 hPa 0,0 l/m 0 min 0 min 0 W/m 3,2 km/h (1 Bft) 93,62 %
01.08.2022 21:24 21,9 C 20,6 C 16,7 C 72 % 1018,7 hPa 0,0 l/m 0 min 0 min 0 W/m 3,2 km/h (1 Bft) 93,62 %
01.08.2022 21:26 21,8 C 20,0 C 16,7 C 73 % 1018,8 hPa 0,0 l/m 0 min 0 min 0 W/m 3,2 km/h (1 Bft) 95,74 %
01.08.2022 21:28 21,8 C 20,0 C 16,7 C 73 % 1018,8 hPa 0,0 l/m 0 min 0 min 0 W/m 3,2 km/h (1 Bft) 95,74 %
01.08.2022 21:30 21,7 C 20,0 C 16,7 C 73 % 1018,9 hPa 0,0 l/m 0 min 0 min 0 W/m 0,0 km/h (0 Bft) 95,65 %
01.08.2022 21:32 21,7 C 20,0 C 16,1 C 74 % 1018,9 hPa 0,0 l/m 0 min 0 min 0 W/m 6,4 km/h (2 Bft) 95,74 %
01.08.2022 21:34 21,6 C 20,0 C 16,1 C 74 % 1018,9 hPa 0,0 l/m 0 min 0 min 0 W/m 0,0 km/h (0 Bft) 93,62 %
01.08.2022 21:36 21,6 C 20,0 C 16,1 C 74 % 1018,9 hPa 0,0 l/m 0 min 0 min 0 W/m 0,0 km/h (0 Bft) 93,62 %
01.08.2022 21:38 21,6 C 20,0 C 16,1 C 75 % 1018,9 hPa 0,0 l/m 0 min 0 min 0 W/m 0,0 km/h (0 Bft) 95,74 %
01.08.2022 21:40 21,5 C 20,0 C 16,1 C 75 % 1018,9 hPa 0,0 l/m 0 min 0 min 0 W/m 0,0 km/h (0 Bft) 97,87 %
01.08.2022 21:42 21,4 C 19,4 C 16,1 C 75 % 1018,9 hPa 0,0 l/m 0 min 0 min 0 W/m 0,0 km/h (0 Bft) 97,83 %
01.08.2022 21:44 21,4 C 19,4 C 16,1 C 76 % 1018,9 hPa 0,0 l/m 0 min 0 min 0 W/m 3,2 km/h (1 Bft) 97,87 %
01.08.2022 21:46 21,3 C 19,4 C 16,1 C 76 % 1018,9 hPa 0,0 l/m 0 min 0 min 0 W/m 0,0 km/h (0 Bft) 93,62 %
01.08.2022 21:48 21,3 C 19,4 C 15,6 C 76 % 1018,9 hPa 0,0 l/m 0 min 0 min 0 W/m 0,0 km/h (0 Bft) 95,74 %
01.08.2022 21:50 21,2 C 19,4 C 15,6 C 76 % 1018,9 hPa 0,0 l/m 0 min 0 min 0 W/m 3,2 km/h (1 Bft) 97,87 %
01.08.2022 21:52 21,2 C 19,4 C 15,6 C 76 % 1018,9 hPa 0,0 l/m 0 min 0 min 0 W/m 3,2 km/h (1 Bft) 95,74 %
01.08.2022 21:54 21,1 C 19,4 C 15,6 C 77 % 1019,0 hPa 0,0 l/m 0 min 0 min 0 W/m 0,0 km/h (0 Bft) 100,00 %
01.08.2022 21:56 21,1 C 19,4 C 15,6 C 77 % 1019,0 hPa 0,0 l/m 0 min 0 min 0 W/m 0,0 km/h (0 Bft) 100,00 %
01.08.2022 21:58 21,0 C 19,4 C 15,6 C 77 % 1019,0 hPa 0,0 l/m 0 min 0 min 0 W/m 0,0 km/h (0 Bft) 100,00 %
01.08.2022 22:00 20,9 C 19,4 C 15,6 C 77 % 1019,0 hPa 0,0 l/m 0 min 0 min 0 W/m 0,0 km/h (0 Bft) 100,00 %
01.08.2022 22:02 20,9 C 18,9 C 15,6 C 77 % 1019,1 hPa 0,0 l/m 0 min 0 min 0 W/m 0,0 km/h (0 Bft) 97,87 %
01.08.2022 22:04 20,8 C 18,9 C 15,6 C 77 % 1019,1 hPa 0,0 l/m 0 min 0 min 0 W/m 3,2 km/h (1 Bft) 100,00 %
01.08.2022 22:06 20,8 C 18,9 C 15,6 C 78 % 1019,1 hPa 0,0 l/m 0 min 0 min 0 W/m 0,0 km/h (0 Bft) 95,74 %
01.08.2022 22:08 20,7 C 18,9 C 15,6 C 78 % 1019,1 hPa 0,0 l/m 0 min 0 min 0 W/m 0,0 km/h (0 Bft) 97,87 %
01.08.2022 22:10 20,7 C 18,9 C 15,6 C 78 % 1019,2 hPa 0,0 l/m 0 min 0 min 0 W/m 0,0 km/h (0 Bft) 100,00 %
01.08.2022 22:12 20,7 C 18,9 C 15,0 C 78 % 1019,2 hPa 0,0 l/m 0 min 0 min 0 W/m 0,0 km/h (0 Bft) 97,87 %
01.08.2022 22:14 20,6 C 18,9 C 15,0 C 79 % 1019,2 hPa 0,0 l/m 0 min 0 min 0 W/m 0,0 km/h (0 Bft) 100,00 %
01.08.2022 22:16 20,6 C 18,9 C 15,0 C 79 % 1019,2 hPa 0,0 l/m 0 min 0 min 0 W/m 0,0 km/h (0 Bft) 100,00 %
01.08.2022 22:18 20,6 C 18,9 C 15,0 C 79 % 1019,2 hPa 0,0 l/m 0 min 0 min 0 W/m 0,0 km/h (0 Bft) 97,83 %
01.08.2022 22:20 20,4 C 18,9 C 15,0 C 79 % 1019,2 hPa 0,0 l/m 0 min 0 min 0 W/m 0,0 km/h (0 Bft) 97,87 %
01.08.2022 22:22 20,4 C 18,9 C 15,0 C 79 % 1019,2 hPa 0,0 l/m 0 min 0 min 0 W/m 0,0 km/h (0 Bft) 97,87 %
01.08.2022 22:24 20,3 C 18,3 C 15,0 C 79 % 1019,2 hPa 0,0 l/m 0 min 0 min 0 W/m 0,0 km/h (0 Bft) 93,62 %
01.08.2022 22:26 20,3 C 18,3 C 15,0 C 79 % 1019,2 hPa 0,0 l/m 0 min 0 min 0 W/m 0,0 km/h (0 Bft) 95,74 %
01.08.2022 22:28 20,2 C 18,3 C 15,0 C 80 % 1019,2 hPa 0,0 l/m 0 min 0 min 0 W/m 0,0 km/h (0 Bft) 97,87 %
01.08.2022 22:30 20,2 C 18,3 C 15,0 C 80 % 1019,2 hPa 0,0 l/m 0 min 0 min 0 W/m 0,0 km/h (0 Bft) 93,48 %
01.08.2022 22:32 20,1 C 18,3 C 14,4 C 80 % 1019,2 hPa 0,0 l/m 0 min 0 min 0 W/m 0,0 km/h (0 Bft) 97,87 %
01.08.2022 22:34 20,1 C 18,3 C 14,4 C 80 % 1019,2 hPa 0,0 l/m 0 min 0 min 0 W/m 3,2 km/h (1 Bft) 97,87 %
01.08.2022 22:36 20,0 C 18,3 C 14,4 C 81 % 1019,2 hPa 0,0 l/m 0 min 0 min 0 W/m 0,0 km/h (0 Bft) 95,74 %
01.08.2022 22:38 20,0 C 18,3 C 14,4 C 81 % 1019,2 hPa 0,0 l/m 0 min 0 min 0 W/m 0,0 km/h (0 Bft) 97,87 %
01.08.2022 22:40 19,9 C 18,3 C 14,4 C 81 % 1019,2 hPa 0,0 l/m 0 min 0 min 0 W/m 0,0 km/h (0 Bft) 97,83 %
01.08.2022 22:42 19,8 C 18,3 C 14,4 C 80 % 1019,2 hPa 0,0 l/m 0 min 0 min 0 W/m 0,0 km/h (0 Bft) 95,74 %
01.08.2022 22:44 19,8 C 18,3 C 14,4 C 80 % 1019,3 hPa 0,0 l/m 0 min 0 min 0 W/m 0,0 km/h (0 Bft) 97,87 %
01.08.2022 22:46 19,8 C 18,3 C 14,4 C 81 % 1019,2 hPa 0,0 l/m 0 min 0 min 0 W/m 0,0 km/h (0 Bft) 97,87 %
01.08.2022 22:48 19,7 C 18,3 C 14,4 C 81 % 1019,2 hPa 0,0 l/m 0 min 0 min 0 W/m 0,0 km/h (0 Bft) 95,74 %
01.08.2022 22:50 19,7 C 18,3 C 14,4 C 81 % 1019,2 hPa 0,0 l/m 0 min 0 min 0 W/m 0,0 km/h (0 Bft) 95,74 %
01.08.2022 22:52 19,6 C 18,3 C 14,4 C 81 % 1019,2 hPa 0,0 l/m 0 min 0 min 0 W/m 0,0 km/h (0 Bft) 95,65 %
01.08.2022 22:54 19,6 C 17,8 C 14,4 C 81 % 1019,3 hPa 0,0 l/m 0 min 0 min 0 W/m 0,0 km/h (0 Bft) 97,87 %
01.08.2022 22:56 19,6 C 17,8 C 14,4 C 81 % 1019,3 hPa 0,0 l/m 0 min 0 min 0 W/m 0,0 km/h (0 Bft) 95,74 %
01.08.2022 22:58 19,5 C 17,8 C 14,4 C 81 % 1019,3 hPa 0,0 l/m 0 min 0 min 0 W/m 0,0 km/h (0 Bft) 95,74 %
01.08.2022 23:00 19,4 C 17,8 C 14,4 C 81 % 1019,2 hPa 0,0 l/m 0 min 0 min 0 W/m 0,0 km/h (0 Bft) 95,74 %
01.08.2022 23:02 19,3 C 17,8 C 14,4 C 81 % 1019,3 hPa 0,0 l/m 0 min 0 min 0 W/m 0,0 km/h (0 Bft) 95,74 %
01.08.2022 23:04 19,3 C 17,8 C 14,4 C 81 % 1019,3 hPa 0,0 l/m 0 min 0 min 0 W/m 0,0 km/h (0 Bft) 97,83 %
01.08.2022 23:06 19,2 C 17,8 C 14,4 C 82 % 1019,2 hPa 0,0 l/m 0 min 0 min 0 W/m 0,0 km/h (0 Bft) 95,74 %
01.08.2022 23:08 19,2 C 17,8 C 14,4 C 82 % 1019,2 hPa 0,0 l/m 0 min 0 min 0 W/m 0,0 km/h (0 Bft) 97,87 %
01.08.2022 23:10 19,1 C 17,8 C 13,9 C 82 % 1019,2 hPa 0,0 l/m 0 min 0 min 0 W/m 0,0 km/h (0 Bft) 97,87 %
01.08.2022 23:12 19,1 C 17,2 C 13,9 C 82 % 1019,2 hPa 0,0 l/m 0 min 0 min 0 W/m 0,0 km/h (0 Bft) 95,74 %
01.08.2022 23:14 19,0 C 17,2 C 13,9 C 83 % 1019,2 hPa 0,0 l/m 0 min 0 min 0 W/m 0,0 km/h (0 Bft) 97,87 %
01.08.2022 23:16 18,9 C 17,2 C 13,9 C 83 % 1019,2 hPa 0,0 l/m 0 min 0 min 0 W/m 0,0 km/h (0 Bft) 95,65 %
01.08.2022 23:18 18,9 C 17,2 C 13,9 C 83 % 1019,3 hPa 0,0 l/m 0 min 0 min 0 W/m 0,0 km/h (0 Bft) 97,87 %
01.08.2022 23:20 18,8 C 17,2 C 13,9 C 83 % 1019,3 hPa 0,0 l/m 0 min 0 min 0 W/m 0,0 km/h (0 Bft) 97,87 %
01.08.2022 23:22 18,8 C 17,2 C 13,9 C 83 % 1019,3 hPa 0,0 l/m 0 min 0 min 0 W/m 0,0 km/h (0 Bft) 100,00 %
01.08.2022 23:24 18,7 C 17,2 C 13,9 C 84 % 1019,3 hPa 0,0 l/m 0 min 0 min 0 W/m 0,0 km/h (0 Bft) 100,00 %
01.08.2022 23:26 18,7 C 17,2 C 13,9 C 83 % 1019,3 hPa 0,0 l/m 0 min 0 min 0 W/m 0,0 km/h (0 Bft) 97,87 %
01.08.2022 23:28 18,6 C 17,2 C 13,9 C 84 % 1019,3 hPa 0,0 l/m 0 min 0 min 0 W/m 0,0 km/h (0 Bft) 100,00 %
01.08.2022 23:30 18,6 C 17,2 C 13,9 C 84 % 1019,3 hPa 0,0 l/m 0 min 0 min 0 W/m 0,0 km/h (0 Bft) 97,87 %
01.08.2022 23:32 18,6 C 17,2 C 13,3 C 85 % 1019,3 hPa 0,0 l/m 0 min 0 min 0 W/m 3,2 km/h (1 Bft) 100,00 %
01.08.2022 23:34 18,5 C 16,7 C 13,3 C 85 % 1019,3 hPa 0,0 l/m 0 min 0 min 0 W/m 3,2 km/h (1 Bft) 100,00 %
01.08.2022 23:36 18,4 C 16,7 C 13,3 C 85 % 1019,4 hPa 0,0 l/m 0 min 0 min 0 W/m 3,2 km/h (1 Bft) 100,00 %
01.08.2022 23:38 18,4 C 17,2 C 13,3 C 85 % 1019,4 hPa 0,0 l/m 0 min 0 min 0 W/m 3,2 km/h (1 Bft) 100,00 %
01.08.2022 23:40 18,4 C 17,2 C 13,3 C 85 % 1019,4 hPa 0,0 l/m 0 min 0 min 0 W/m 0,0 km/h (0 Bft) 100,00 %
01.08.2022 23:42 18,3 C 17,2 C 13,3 C 85 % 1019,4 hPa 0,0 l/m 0 min 0 min 0 W/m 3,2 km/h (1 Bft) 95,65 %
01.08.2022 23:44 18,3 C 17,2 C 13,3 C 85 % 1019,3 hPa 0,0 l/m 0 min 0 min 0 W/m 0,0 km/h (0 Bft) 100,00 %
01.08.2022 23:46 18,3 C 17,2 C 13,3 C 85 % 1019,4 hPa 0,0 l/m 0 min 0 min 0 W/m 3,2 km/h (1 Bft) 100,00 %
01.08.2022 23:48 18,2 C 17,2 C 13,3 C 85 % 1019,4 hPa 0,0 l/m 0 min 0 min 0 W/m 3,2 km/h (1 Bft) 95,74 %
01.08.2022 23:50 18,2 C 16,7 C 13,3 C 85 % 1019,4 hPa 0,0 l/m 0 min 0 min 0 W/m 0,0 km/h (0 Bft) 100,00 %
01.08.2022 23:52 18,2 C 16,7 C 13,3 C 85 % 1019,4 hPa 0,0 l/m 0 min 0 min 0 W/m 0,0 km/h (0 Bft) 100,00 %
01.08.2022 23:54 18,1 C 16,7 C 13,3 C 85 % 1019,4 hPa 0,0 l/m 0 min 0 min 0 W/m 0,0 km/h (0 Bft) 100,00 %
01.08.2022 23:56 18,1 C 16,7 C 13,3 C 85 % 1019,4 hPa 0,0 l/m 0 min 0 min 0 W/m 0,0 km/h (0 Bft) 100,00 %
01.08.2022 23:58 18,1 C 16,7 C 13,3 C 85 % 1019,4 hPa 0,0 l/m 0 min 0 min 0 W/m 6,4 km/h (2 Bft) 100,00 %
_ Min-Zeit 23:54 23:34 23:32 14:02 00:00 - - - - 21:30 15:06
Minimum _ 18,1 C 16,7 C 13,3 C 63 % 1016,2 hPa - - - - 0,0 km/h (0 Bft) 53,66 %
_ Max-Zeit 15:14 18:35 12:20 00:00 23:36 00:00 17:20 00:42 12:22 00:42 01:40
Maximum _ 26,0 C 30,6 C 24,4 C 96 % 1019,4 hPa 0,0 l/m 5 min 2 min 1102 W/m 25,7 km/h
NW (4 Bft)
100,00 %
Durchschnitt _ 21,6 C 21,8 C 17,5 C 82 % 1017,6 hPa #0,0 l/m #7:53 h #2 min. 338 W/m 9,1 km/h (2 Bft) 97,64 %
© 2022 W. Hausmann